<?xml version="1.0" encoding="UTF-8" standalone="no" ?>
<gpx xmlns="http://www.topografix.com/GPX/1/1" xmlns:xsi="http://www.w3.org/2001/XMLSchema-instance" xsi:schemaLocation="http://www.topografix.com/GPX/1/1 http://www.topografix.com/GPX/1/1/gpx.xsd" version="1.1" creator="VisuGPX - https://www.visugpx.com">
  <metadata>
    <name>Font-Romeu / Thuir d'Evol</name>
    <desc><![CDATA[de Font-Romeu à Thuir d'Evol par les petites routes, via Ayguatebia et retour par Railleu: jolis villages à découvrir, route calme. réalisé avec VTT avec assistance électrique.]]></desc>
  </metadata>
  <trk>
    <name><![CDATA[VTT FR Thuir d'évol AR]]></name>
    <cmt><![CDATA[6 juil. 2016 08:48:56]]></cmt>
    <trkseg>
      <trkpt lat="42.50491" lon="2.03615">
        <ele>1748</ele>
        <time>2016-07-06T06:48:57Z</time>
      </trkpt>
      <trkpt lat="42.50485" lon="2.03606">
        <ele>1743</ele>
        <time>2016-07-06T06:49:08Z</time>
      </trkpt>
      <trkpt lat="42.50489" lon="2.03602">
        <ele>1743</ele>
        <time>2016-07-06T06:49:54Z</time>
      </trkpt>
      <trkpt lat="42.50494" lon="2.03601">
        <ele>1744</ele>
        <time>2016-07-06T06:49:59Z</time>
      </trkpt>
      <trkpt lat="42.50497" lon="2.03602">
        <ele>1747</ele>
        <time>2016-07-06T06:54:44Z</time>
      </trkpt>
      <trkpt lat="42.50497" lon="2.036">
        <ele>1747</ele>
        <time>2016-07-06T06:59:26Z</time>
      </trkpt>
      <trkpt lat="42.50495" lon="2.03593">
        <ele>1747</ele>
        <time>2016-07-06T07:00:34Z</time>
      </trkpt>
      <trkpt lat="42.50497" lon="2.03588">
        <ele>1747</ele>
        <time>2016-07-06T07:00:36Z</time>
      </trkpt>
      <trkpt lat="42.50511" lon="2.03573">
        <ele>1746</ele>
        <time>2016-07-06T07:00:43Z</time>
      </trkpt>
      <trkpt lat="42.50521" lon="2.03575">
        <ele>1746</ele>
        <time>2016-07-06T07:00:46Z</time>
      </trkpt>
      <trkpt lat="42.50528" lon="2.03581">
        <ele>1746</ele>
        <time>2016-07-06T07:00:49Z</time>
      </trkpt>
      <trkpt lat="42.5053" lon="2.03588">
        <ele>1747</ele>
        <time>2016-07-06T07:00:52Z</time>
      </trkpt>
      <trkpt lat="42.5053" lon="2.03607">
        <ele>1748</ele>
        <time>2016-07-06T07:00:59Z</time>
      </trkpt>
      <trkpt lat="42.50493" lon="2.03658">
        <ele>1749</ele>
        <time>2016-07-06T07:01:18Z</time>
      </trkpt>
      <trkpt lat="42.5041" lon="2.03789">
        <ele>1746</ele>
        <time>2016-07-06T07:01:49Z</time>
      </trkpt>
      <trkpt lat="42.50389" lon="2.03838">
        <ele>1745</ele>
        <time>2016-07-06T07:01:59Z</time>
      </trkpt>
      <trkpt lat="42.50389" lon="2.03896">
        <ele>1743</ele>
        <time>2016-07-06T07:02:08Z</time>
      </trkpt>
      <trkpt lat="42.5039" lon="2.03899">
        <ele>1743</ele>
        <time>2016-07-06T07:02:09Z</time>
      </trkpt>
      <trkpt lat="42.50466" lon="2.03976">
        <ele>1747</ele>
        <time>2016-07-06T07:02:40Z</time>
      </trkpt>
      <trkpt lat="42.50509" lon="2.04115">
        <ele>1751</ele>
        <time>2016-07-06T07:03:11Z</time>
      </trkpt>
      <trkpt lat="42.50523" lon="2.0429">
        <ele>1754</ele>
        <time>2016-07-06T07:03:42Z</time>
      </trkpt>
      <trkpt lat="42.50517" lon="2.04425">
        <ele>1760</ele>
        <time>2016-07-06T07:04:13Z</time>
      </trkpt>
      <trkpt lat="42.50512" lon="2.0448">
        <ele>1764</ele>
        <time>2016-07-06T07:04:27Z</time>
      </trkpt>
      <trkpt lat="42.50544" lon="2.04509">
        <ele>1767</ele>
        <time>2016-07-06T07:04:38Z</time>
      </trkpt>
      <trkpt lat="42.50643" lon="2.04583">
        <ele>1775</ele>
        <time>2016-07-06T07:05:09Z</time>
      </trkpt>
      <trkpt lat="42.50737" lon="2.04619">
        <ele>1781</ele>
        <time>2016-07-06T07:05:37Z</time>
      </trkpt>
      <trkpt lat="42.50847" lon="2.04586">
        <ele>1788</ele>
        <time>2016-07-06T07:06:08Z</time>
      </trkpt>
      <trkpt lat="42.50937" lon="2.04665">
        <ele>1795</ele>
        <time>2016-07-06T07:06:38Z</time>
      </trkpt>
      <trkpt lat="42.51032" lon="2.04698">
        <ele>1801</ele>
        <time>2016-07-06T07:07:06Z</time>
      </trkpt>
      <trkpt lat="42.51125" lon="2.04628">
        <ele>1807</ele>
        <time>2016-07-06T07:07:37Z</time>
      </trkpt>
      <trkpt lat="42.51196" lon="2.04626">
        <ele>1811</ele>
        <time>2016-07-06T07:07:58Z</time>
      </trkpt>
      <trkpt lat="42.5121" lon="2.04659">
        <ele>1814</ele>
        <time>2016-07-06T07:08:06Z</time>
      </trkpt>
      <trkpt lat="42.51173" lon="2.04799">
        <ele>1822</ele>
        <time>2016-07-06T07:08:37Z</time>
      </trkpt>
      <trkpt lat="42.51144" lon="2.04937">
        <ele>1830</ele>
        <time>2016-07-06T07:09:07Z</time>
      </trkpt>
      <trkpt lat="42.51179" lon="2.05067">
        <ele>1833</ele>
        <time>2016-07-06T07:09:35Z</time>
      </trkpt>
      <trkpt lat="42.51191" lon="2.05077">
        <ele>1833</ele>
        <time>2016-07-06T07:09:38Z</time>
      </trkpt>
      <trkpt lat="42.51435" lon="2.05046">
        <ele>1823</ele>
        <time>2016-07-06T07:10:09Z</time>
      </trkpt>
      <trkpt lat="42.51528" lon="2.05124">
        <ele>1817</ele>
        <time>2016-07-06T07:10:21Z</time>
      </trkpt>
      <trkpt lat="42.51533" lon="2.05136">
        <ele>1817</ele>
        <time>2016-07-06T07:10:22Z</time>
      </trkpt>
      <trkpt lat="42.51527" lon="2.05241">
        <ele>1813</ele>
        <time>2016-07-06T07:10:30Z</time>
      </trkpt>
      <trkpt lat="42.51501" lon="2.0565">
        <ele>1799</ele>
        <time>2016-07-06T07:11:01Z</time>
      </trkpt>
      <trkpt lat="42.51444" lon="2.06007">
        <ele>1786</ele>
        <time>2016-07-06T07:11:31Z</time>
      </trkpt>
      <trkpt lat="42.51446" lon="2.0602">
        <ele>1786</ele>
        <time>2016-07-06T07:11:33Z</time>
      </trkpt>
      <trkpt lat="42.51448" lon="2.06126">
        <ele>1784</ele>
        <time>2016-07-06T07:11:48Z</time>
      </trkpt>
      <trkpt lat="42.51444" lon="2.06136">
        <ele>1784</ele>
        <time>2016-07-06T07:11:50Z</time>
      </trkpt>
      <trkpt lat="42.51439" lon="2.06141">
        <ele>1784</ele>
        <time>2016-07-06T07:11:52Z</time>
      </trkpt>
      <trkpt lat="42.51438" lon="2.06148">
        <ele>1783</ele>
        <time>2016-07-06T07:11:54Z</time>
      </trkpt>
      <trkpt lat="42.51439" lon="2.06151">
        <ele>1783</ele>
        <time>2016-07-06T07:12:00Z</time>
      </trkpt>
      <trkpt lat="42.51438" lon="2.06156">
        <ele>1780</ele>
        <time>2016-07-06T07:14:32Z</time>
      </trkpt>
      <trkpt lat="42.51389" lon="2.06342">
        <ele>1775</ele>
        <time>2016-07-06T07:15:03Z</time>
      </trkpt>
      <trkpt lat="42.51391" lon="2.06452">
        <ele>1768</ele>
        <time>2016-07-06T07:15:12Z</time>
      </trkpt>
      <trkpt lat="42.51552" lon="2.06819">
        <ele>1744</ele>
        <time>2016-07-06T07:15:42Z</time>
      </trkpt>
      <trkpt lat="42.51478" lon="2.07222">
        <ele>1733</ele>
        <time>2016-07-06T07:16:13Z</time>
      </trkpt>
      <trkpt lat="42.51525" lon="2.07569">
        <ele>1726</ele>
        <time>2016-07-06T07:16:44Z</time>
      </trkpt>
      <trkpt lat="42.51502" lon="2.07661">
        <ele>1726</ele>
        <time>2016-07-06T07:16:55Z</time>
      </trkpt>
      <trkpt lat="42.51377" lon="2.07879">
        <ele>1725</ele>
        <time>2016-07-06T07:17:26Z</time>
      </trkpt>
      <trkpt lat="42.51209" lon="2.08276">
        <ele>1704</ele>
        <time>2016-07-06T07:17:56Z</time>
      </trkpt>
      <trkpt lat="42.51119" lon="2.08712">
        <ele>1689</ele>
        <time>2016-07-06T07:18:27Z</time>
      </trkpt>
      <trkpt lat="42.51123" lon="2.08761">
        <ele>1687</ele>
        <time>2016-07-06T07:18:30Z</time>
      </trkpt>
      <trkpt lat="42.51129" lon="2.08771">
        <ele>1687</ele>
        <time>2016-07-06T07:18:31Z</time>
      </trkpt>
      <trkpt lat="42.511" lon="2.09227">
        <ele>1672</ele>
        <time>2016-07-06T07:19:02Z</time>
      </trkpt>
      <trkpt lat="42.51096" lon="2.09594">
        <ele>1666</ele>
        <time>2016-07-06T07:19:33Z</time>
      </trkpt>
      <trkpt lat="42.51199" lon="2.09924">
        <ele>1657</ele>
        <time>2016-07-06T07:20:03Z</time>
      </trkpt>
      <trkpt lat="42.51295" lon="2.10289">
        <ele>1645</ele>
        <time>2016-07-06T07:20:34Z</time>
      </trkpt>
      <trkpt lat="42.51372" lon="2.10592">
        <ele>1640</ele>
        <time>2016-07-06T07:21:04Z</time>
      </trkpt>
      <trkpt lat="42.51434" lon="2.10803">
        <ele>1641</ele>
        <time>2016-07-06T07:21:32Z</time>
      </trkpt>
      <trkpt lat="42.5131" lon="2.10994">
        <ele>1635</ele>
        <time>2016-07-06T07:21:56Z</time>
      </trkpt>
      <trkpt lat="42.51209" lon="2.11055">
        <ele>1624</ele>
        <time>2016-07-06T07:22:09Z</time>
      </trkpt>
      <trkpt lat="42.51088" lon="2.11419">
        <ele>1599</ele>
        <time>2016-07-06T07:22:39Z</time>
      </trkpt>
      <trkpt lat="42.51084" lon="2.11424">
        <ele>1599</ele>
        <time>2016-07-06T07:22:40Z</time>
      </trkpt>
      <trkpt lat="42.51083" lon="2.11436">
        <ele>1599</ele>
        <time>2016-07-06T07:22:42Z</time>
      </trkpt>
      <trkpt lat="42.51084" lon="2.11443">
        <ele>1598</ele>
        <time>2016-07-06T07:22:43Z</time>
      </trkpt>
      <trkpt lat="42.51092" lon="2.11453">
        <ele>1598</ele>
        <time>2016-07-06T07:22:45Z</time>
      </trkpt>
      <trkpt lat="42.5118" lon="2.11478">
        <ele>1597</ele>
        <time>2016-07-06T07:23:01Z</time>
      </trkpt>
      <trkpt lat="42.51209" lon="2.11458">
        <ele>1597</ele>
        <time>2016-07-06T07:23:07Z</time>
      </trkpt>
      <trkpt lat="42.51226" lon="2.11377">
        <ele>1597</ele>
        <time>2016-07-06T07:23:18Z</time>
      </trkpt>
      <trkpt lat="42.51231" lon="2.11329">
        <ele>1596</ele>
        <time>2016-07-06T07:23:24Z</time>
      </trkpt>
      <trkpt lat="42.51232" lon="2.11321">
        <ele>1597</ele>
        <time>2016-07-06T07:23:25Z</time>
      </trkpt>
      <trkpt lat="42.51338" lon="2.11132">
        <ele>1598</ele>
        <time>2016-07-06T07:23:55Z</time>
      </trkpt>
      <trkpt lat="42.51392" lon="2.11049">
        <ele>1599</ele>
        <time>2016-07-06T07:24:09Z</time>
      </trkpt>
      <trkpt lat="42.51481" lon="2.11075">
        <ele>1603</ele>
        <time>2016-07-06T07:24:29Z</time>
      </trkpt>
      <trkpt lat="42.515" lon="2.11113">
        <ele>1605</ele>
        <time>2016-07-06T07:24:38Z</time>
      </trkpt>
      <trkpt lat="42.51489" lon="2.11254">
        <ele>1610</ele>
        <time>2016-07-06T07:25:09Z</time>
      </trkpt>
      <trkpt lat="42.51548" lon="2.11379">
        <ele>1616</ele>
        <time>2016-07-06T07:25:40Z</time>
      </trkpt>
      <trkpt lat="42.51654" lon="2.11495">
        <ele>1619</ele>
        <time>2016-07-06T07:26:10Z</time>
      </trkpt>
      <trkpt lat="42.51821" lon="2.11612">
        <ele>1620</ele>
        <time>2016-07-06T07:26:41Z</time>
      </trkpt>
      <trkpt lat="42.51974" lon="2.1172">
        <ele>1622</ele>
        <time>2016-07-06T07:27:11Z</time>
      </trkpt>
      <trkpt lat="42.52095" lon="2.11828">
        <ele>1628</ele>
        <time>2016-07-06T07:27:42Z</time>
      </trkpt>
      <trkpt lat="42.52175" lon="2.11953">
        <ele>1633</ele>
        <time>2016-07-06T07:28:12Z</time>
      </trkpt>
      <trkpt lat="42.52254" lon="2.12073">
        <ele>1639</ele>
        <time>2016-07-06T07:28:43Z</time>
      </trkpt>
      <trkpt lat="42.5235" lon="2.12181">
        <ele>1644</ele>
        <time>2016-07-06T07:29:14Z</time>
      </trkpt>
      <trkpt lat="42.52469" lon="2.12266">
        <ele>1651</ele>
        <time>2016-07-06T07:29:45Z</time>
      </trkpt>
      <trkpt lat="42.52595" lon="2.12292">
        <ele>1655</ele>
        <time>2016-07-06T07:30:15Z</time>
      </trkpt>
      <trkpt lat="42.52727" lon="2.12276">
        <ele>1660</ele>
        <time>2016-07-06T07:30:46Z</time>
      </trkpt>
      <trkpt lat="42.5278" lon="2.12272">
        <ele>1662</ele>
        <time>2016-07-06T07:30:58Z</time>
      </trkpt>
      <trkpt lat="42.52894" lon="2.12354">
        <ele>1668</ele>
        <time>2016-07-06T07:31:29Z</time>
      </trkpt>
      <trkpt lat="42.52908" lon="2.12373">
        <ele>1669</ele>
        <time>2016-07-06T07:31:34Z</time>
      </trkpt>
      <trkpt lat="42.52909" lon="2.12378">
        <ele>1669</ele>
        <time>2016-07-06T07:31:35Z</time>
      </trkpt>
      <trkpt lat="42.52908" lon="2.12399">
        <ele>1670</ele>
        <time>2016-07-06T07:31:39Z</time>
      </trkpt>
      <trkpt lat="42.52893" lon="2.12416">
        <ele>1671</ele>
        <time>2016-07-06T07:31:43Z</time>
      </trkpt>
      <trkpt lat="42.52869" lon="2.12507">
        <ele>1674</ele>
        <time>2016-07-06T07:31:59Z</time>
      </trkpt>
      <trkpt lat="42.52894" lon="2.12568">
        <ele>1677</ele>
        <time>2016-07-06T07:32:11Z</time>
      </trkpt>
      <trkpt lat="42.52964" lon="2.12707">
        <ele>1684</ele>
        <time>2016-07-06T07:32:41Z</time>
      </trkpt>
      <trkpt lat="42.53002" lon="2.12743">
        <ele>1687</ele>
        <time>2016-07-06T07:32:53Z</time>
      </trkpt>
      <trkpt lat="42.53062" lon="2.12723">
        <ele>1690</ele>
        <time>2016-07-06T07:33:08Z</time>
      </trkpt>
      <trkpt lat="42.53092" lon="2.12697">
        <ele>1690</ele>
        <time>2016-07-06T07:33:16Z</time>
      </trkpt>
      <trkpt lat="42.5317" lon="2.12671">
        <ele>1692</ele>
        <time>2016-07-06T07:33:34Z</time>
      </trkpt>
      <trkpt lat="42.53212" lon="2.12586">
        <ele>1693</ele>
        <time>2016-07-06T07:33:50Z</time>
      </trkpt>
      <trkpt lat="42.53226" lon="2.12581">
        <ele>1693</ele>
        <time>2016-07-06T07:33:53Z</time>
      </trkpt>
      <trkpt lat="42.53238" lon="2.12589">
        <ele>1693</ele>
        <time>2016-07-06T07:33:56Z</time>
      </trkpt>
      <trkpt lat="42.53246" lon="2.12598">
        <ele>1693</ele>
        <time>2016-07-06T07:33:58Z</time>
      </trkpt>
      <trkpt lat="42.53253" lon="2.12661">
        <ele>1694</ele>
        <time>2016-07-06T07:34:08Z</time>
      </trkpt>
      <trkpt lat="42.53203" lon="2.12898">
        <ele>1691</ele>
        <time>2016-07-06T07:34:36Z</time>
      </trkpt>
      <trkpt lat="42.5325" lon="2.12947">
        <ele>1693</ele>
        <time>2016-07-06T07:34:47Z</time>
      </trkpt>
      <trkpt lat="42.53385" lon="2.1306">
        <ele>1696</ele>
        <time>2016-07-06T07:35:14Z</time>
      </trkpt>
      <trkpt lat="42.53396" lon="2.13253">
        <ele>1704</ele>
        <time>2016-07-06T07:35:44Z</time>
      </trkpt>
      <trkpt lat="42.53373" lon="2.13448">
        <ele>1713</ele>
        <time>2016-07-06T07:36:15Z</time>
      </trkpt>
      <trkpt lat="42.53282" lon="2.13571">
        <ele>1722</ele>
        <time>2016-07-06T07:36:45Z</time>
      </trkpt>
      <trkpt lat="42.53165" lon="2.13623">
        <ele>1731</ele>
        <time>2016-07-06T07:37:15Z</time>
      </trkpt>
      <trkpt lat="42.53041" lon="2.13671">
        <ele>1740</ele>
        <time>2016-07-06T07:37:46Z</time>
      </trkpt>
      <trkpt lat="42.52931" lon="2.13753">
        <ele>1749</ele>
        <time>2016-07-06T07:38:16Z</time>
      </trkpt>
      <trkpt lat="42.52839" lon="2.1385">
        <ele>1759</ele>
        <time>2016-07-06T07:38:46Z</time>
      </trkpt>
      <trkpt lat="42.52806" lon="2.14001">
        <ele>1769</ele>
        <time>2016-07-06T07:39:17Z</time>
      </trkpt>
      <trkpt lat="42.52768" lon="2.14142">
        <ele>1777</ele>
        <time>2016-07-06T07:39:48Z</time>
      </trkpt>
      <trkpt lat="42.52729" lon="2.14252">
        <ele>1784</ele>
        <time>2016-07-06T07:40:13Z</time>
      </trkpt>
      <trkpt lat="42.52734" lon="2.1426">
        <ele>1784</ele>
        <time>2016-07-06T07:40:15Z</time>
      </trkpt>
      <trkpt lat="42.52742" lon="2.14265">
        <ele>1785</ele>
        <time>2016-07-06T07:40:17Z</time>
      </trkpt>
      <trkpt lat="42.52749" lon="2.14264">
        <ele>1785</ele>
        <time>2016-07-06T07:40:19Z</time>
      </trkpt>
      <trkpt lat="42.52758" lon="2.14256">
        <ele>1786</ele>
        <time>2016-07-06T07:40:21Z</time>
      </trkpt>
      <trkpt lat="42.5281" lon="2.14152">
        <ele>1791</ele>
        <time>2016-07-06T07:40:41Z</time>
      </trkpt>
      <trkpt lat="42.5288" lon="2.14136">
        <ele>1796</ele>
        <time>2016-07-06T07:41:01Z</time>
      </trkpt>
      <trkpt lat="42.52984" lon="2.14071">
        <ele>1806</ele>
        <time>2016-07-06T07:41:31Z</time>
      </trkpt>
      <trkpt lat="42.53094" lon="2.1403">
        <ele>1816</ele>
        <time>2016-07-06T07:42:02Z</time>
      </trkpt>
      <trkpt lat="42.53133" lon="2.13997">
        <ele>1819</ele>
        <time>2016-07-06T07:42:14Z</time>
      </trkpt>
      <trkpt lat="42.53243" lon="2.14">
        <ele>1829</ele>
        <time>2016-07-06T07:42:45Z</time>
      </trkpt>
      <trkpt lat="42.5336" lon="2.14014">
        <ele>1837</ele>
        <time>2016-07-06T07:43:16Z</time>
      </trkpt>
      <trkpt lat="42.53469" lon="2.14072">
        <ele>1847</ele>
        <time>2016-07-06T07:43:47Z</time>
      </trkpt>
      <trkpt lat="42.5355" lon="2.14186">
        <ele>1857</ele>
        <time>2016-07-06T07:44:18Z</time>
      </trkpt>
      <trkpt lat="42.53569" lon="2.14217">
        <ele>1858</ele>
        <time>2016-07-06T07:44:26Z</time>
      </trkpt>
      <trkpt lat="42.53666" lon="2.14233">
        <ele>1855</ele>
        <time>2016-07-06T07:44:43Z</time>
      </trkpt>
      <trkpt lat="42.53755" lon="2.14245">
        <ele>1850</ele>
        <time>2016-07-06T07:44:54Z</time>
      </trkpt>
      <trkpt lat="42.54009" lon="2.14478">
        <ele>1832</ele>
        <time>2016-07-06T07:45:25Z</time>
      </trkpt>
      <trkpt lat="42.54152" lon="2.14537">
        <ele>1822</ele>
        <time>2016-07-06T07:45:40Z</time>
      </trkpt>
      <trkpt lat="42.54206" lon="2.1462">
        <ele>1817</ele>
        <time>2016-07-06T07:45:48Z</time>
      </trkpt>
      <trkpt lat="42.54274" lon="2.1464">
        <ele>1811</ele>
        <time>2016-07-06T07:45:55Z</time>
      </trkpt>
      <trkpt lat="42.54307" lon="2.14692">
        <ele>1808</ele>
        <time>2016-07-06T07:46:01Z</time>
      </trkpt>
      <trkpt lat="42.54338" lon="2.147">
        <ele>1806</ele>
        <time>2016-07-06T07:46:05Z</time>
      </trkpt>
      <trkpt lat="42.54345" lon="2.14699">
        <ele>1805</ele>
        <time>2016-07-06T07:46:06Z</time>
      </trkpt>
      <trkpt lat="42.54348" lon="2.14695">
        <ele>1805</ele>
        <time>2016-07-06T07:46:07Z</time>
      </trkpt>
      <trkpt lat="42.5436" lon="2.14659">
        <ele>1803</ele>
        <time>2016-07-06T07:46:11Z</time>
      </trkpt>
      <trkpt lat="42.54358" lon="2.14624">
        <ele>1802</ele>
        <time>2016-07-06T07:46:15Z</time>
      </trkpt>
      <trkpt lat="42.54363" lon="2.14565">
        <ele>1801</ele>
        <time>2016-07-06T07:46:21Z</time>
      </trkpt>
      <trkpt lat="42.54371" lon="2.14568">
        <ele>1800</ele>
        <time>2016-07-06T07:46:22Z</time>
      </trkpt>
      <trkpt lat="42.54375" lon="2.14568">
        <ele>1800</ele>
        <time>2016-07-06T07:46:23Z</time>
      </trkpt>
      <trkpt lat="42.5438" lon="2.1457">
        <ele>1800</ele>
        <time>2016-07-06T07:46:24Z</time>
      </trkpt>
      <trkpt lat="42.54384" lon="2.14576">
        <ele>1800</ele>
        <time>2016-07-06T07:46:25Z</time>
      </trkpt>
      <trkpt lat="42.54386" lon="2.14592">
        <ele>1799</ele>
        <time>2016-07-06T07:46:27Z</time>
      </trkpt>
      <trkpt lat="42.54374" lon="2.14622">
        <ele>1798</ele>
        <time>2016-07-06T07:46:31Z</time>
      </trkpt>
      <trkpt lat="42.54387" lon="2.14718">
        <ele>1795</ele>
        <time>2016-07-06T07:46:40Z</time>
      </trkpt>
      <trkpt lat="42.54378" lon="2.14734">
        <ele>1794</ele>
        <time>2016-07-06T07:46:42Z</time>
      </trkpt>
      <trkpt lat="42.54293" lon="2.14768">
        <ele>1789</ele>
        <time>2016-07-06T07:46:52Z</time>
      </trkpt>
      <trkpt lat="42.54286" lon="2.14761">
        <ele>1788</ele>
        <time>2016-07-06T07:46:53Z</time>
      </trkpt>
      <trkpt lat="42.54268" lon="2.14763">
        <ele>1788</ele>
        <time>2016-07-06T07:46:55Z</time>
      </trkpt>
      <trkpt lat="42.54263" lon="2.14759">
        <ele>1787</ele>
        <time>2016-07-06T07:46:56Z</time>
      </trkpt>
      <trkpt lat="42.54235" lon="2.14756">
        <ele>1785</ele>
        <time>2016-07-06T07:47:01Z</time>
      </trkpt>
      <trkpt lat="42.54228" lon="2.14761">
        <ele>1785</ele>
        <time>2016-07-06T07:47:02Z</time>
      </trkpt>
      <trkpt lat="42.54187" lon="2.14748">
        <ele>1782</ele>
        <time>2016-07-06T07:47:09Z</time>
      </trkpt>
      <trkpt lat="42.54183" lon="2.1474">
        <ele>1782</ele>
        <time>2016-07-06T07:47:10Z</time>
      </trkpt>
      <trkpt lat="42.54176" lon="2.1474">
        <ele>1782</ele>
        <time>2016-07-06T07:47:11Z</time>
      </trkpt>
      <trkpt lat="42.54171" lon="2.14743">
        <ele>1781</ele>
        <time>2016-07-06T07:47:12Z</time>
      </trkpt>
      <trkpt lat="42.54166" lon="2.14749">
        <ele>1781</ele>
        <time>2016-07-06T07:47:13Z</time>
      </trkpt>
      <trkpt lat="42.54165" lon="2.14756">
        <ele>1780</ele>
        <time>2016-07-06T07:47:14Z</time>
      </trkpt>
      <trkpt lat="42.54165" lon="2.14763">
        <ele>1780</ele>
        <time>2016-07-06T07:47:15Z</time>
      </trkpt>
      <trkpt lat="42.54169" lon="2.14767">
        <ele>1780</ele>
        <time>2016-07-06T07:47:16Z</time>
      </trkpt>
      <trkpt lat="42.54176" lon="2.14771">
        <ele>1779</ele>
        <time>2016-07-06T07:47:17Z</time>
      </trkpt>
      <trkpt lat="42.54193" lon="2.14766">
        <ele>1779</ele>
        <time>2016-07-06T07:47:19Z</time>
      </trkpt>
      <trkpt lat="42.54398" lon="2.14931">
        <ele>1764</ele>
        <time>2016-07-06T07:47:44Z</time>
      </trkpt>
      <trkpt lat="42.54435" lon="2.15047">
        <ele>1755</ele>
        <time>2016-07-06T07:47:57Z</time>
      </trkpt>
      <trkpt lat="42.54528" lon="2.15091">
        <ele>1749</ele>
        <time>2016-07-06T07:48:11Z</time>
      </trkpt>
      <trkpt lat="42.54554" lon="2.15074">
        <ele>1748</ele>
        <time>2016-07-06T07:48:14Z</time>
      </trkpt>
      <trkpt lat="42.54566" lon="2.1506">
        <ele>1747</ele>
        <time>2016-07-06T07:48:16Z</time>
      </trkpt>
      <trkpt lat="42.54568" lon="2.15043">
        <ele>1746</ele>
        <time>2016-07-06T07:48:17Z</time>
      </trkpt>
      <trkpt lat="42.5457" lon="2.15038">
        <ele>1745</ele>
        <time>2016-07-06T07:48:18Z</time>
      </trkpt>
      <trkpt lat="42.54567" lon="2.15024">
        <ele>1745</ele>
        <time>2016-07-06T07:48:19Z</time>
      </trkpt>
      <trkpt lat="42.54568" lon="2.15012">
        <ele>1745</ele>
        <time>2016-07-06T07:48:20Z</time>
      </trkpt>
      <trkpt lat="42.5456" lon="2.14993">
        <ele>1744</ele>
        <time>2016-07-06T07:48:22Z</time>
      </trkpt>
      <trkpt lat="42.54563" lon="2.14982">
        <ele>1743</ele>
        <time>2016-07-06T07:48:23Z</time>
      </trkpt>
      <trkpt lat="42.54581" lon="2.1495">
        <ele>1741</ele>
        <time>2016-07-06T07:48:27Z</time>
      </trkpt>
      <trkpt lat="42.54586" lon="2.14947">
        <ele>1741</ele>
        <time>2016-07-06T07:48:28Z</time>
      </trkpt>
      <trkpt lat="42.54599" lon="2.14949">
        <ele>1740</ele>
        <time>2016-07-06T07:48:30Z</time>
      </trkpt>
      <trkpt lat="42.54638" lon="2.1499">
        <ele>1737</ele>
        <time>2016-07-06T07:48:36Z</time>
      </trkpt>
      <trkpt lat="42.54668" lon="2.15024">
        <ele>1733</ele>
        <time>2016-07-06T07:48:41Z</time>
      </trkpt>
      <trkpt lat="42.54719" lon="2.15034">
        <ele>1729</ele>
        <time>2016-07-06T07:48:47Z</time>
      </trkpt>
      <trkpt lat="42.54763" lon="2.15123">
        <ele>1722</ele>
        <time>2016-07-06T07:48:55Z</time>
      </trkpt>
      <trkpt lat="42.54786" lon="2.1521">
        <ele>1717</ele>
        <time>2016-07-06T07:49:03Z</time>
      </trkpt>
      <trkpt lat="42.54904" lon="2.15224">
        <ele>1710</ele>
        <time>2016-07-06T07:49:15Z</time>
      </trkpt>
      <trkpt lat="42.55139" lon="2.15368">
        <ele>1690</ele>
        <time>2016-07-06T07:49:45Z</time>
      </trkpt>
      <trkpt lat="42.55391" lon="2.15477">
        <ele>1673</ele>
        <time>2016-07-06T07:50:16Z</time>
      </trkpt>
      <trkpt lat="42.55444" lon="2.15525">
        <ele>1671</ele>
        <time>2016-07-06T07:50:23Z</time>
      </trkpt>
      <trkpt lat="42.55451" lon="2.15669">
        <ele>1667</ele>
        <time>2016-07-06T07:50:53Z</time>
      </trkpt>
      <trkpt lat="42.55473" lon="2.15746">
        <ele>1665</ele>
        <time>2016-07-06T07:51:06Z</time>
      </trkpt>
      <trkpt lat="42.55662" lon="2.15925">
        <ele>1649</ele>
        <time>2016-07-06T07:51:37Z</time>
      </trkpt>
      <trkpt lat="42.55787" lon="2.16057">
        <ele>1637</ele>
        <time>2016-07-06T07:51:56Z</time>
      </trkpt>
      <trkpt lat="42.55785" lon="2.16063">
        <ele>1636</ele>
        <time>2016-07-06T07:51:57Z</time>
      </trkpt>
      <trkpt lat="42.55781" lon="2.16069">
        <ele>1636</ele>
        <time>2016-07-06T07:51:58Z</time>
      </trkpt>
      <trkpt lat="42.55732" lon="2.16067">
        <ele>1633</ele>
        <time>2016-07-06T07:52:05Z</time>
      </trkpt>
      <trkpt lat="42.55602" lon="2.16">
        <ele>1624</ele>
        <time>2016-07-06T07:52:22Z</time>
      </trkpt>
      <trkpt lat="42.55596" lon="2.16021">
        <ele>1622</ele>
        <time>2016-07-06T07:52:25Z</time>
      </trkpt>
      <trkpt lat="42.55596" lon="2.16039">
        <ele>1622</ele>
        <time>2016-07-06T07:52:27Z</time>
      </trkpt>
      <trkpt lat="42.55637" lon="2.16147">
        <ele>1619</ele>
        <time>2016-07-06T07:52:40Z</time>
      </trkpt>
      <trkpt lat="42.55632" lon="2.16153">
        <ele>1619</ele>
        <time>2016-07-06T07:52:41Z</time>
      </trkpt>
      <trkpt lat="42.55585" lon="2.1635">
        <ele>1614</ele>
        <time>2016-07-06T07:53:03Z</time>
      </trkpt>
      <trkpt lat="42.55641" lon="2.1653">
        <ele>1608</ele>
        <time>2016-07-06T07:53:22Z</time>
      </trkpt>
      <trkpt lat="42.55658" lon="2.16539">
        <ele>1607</ele>
        <time>2016-07-06T07:53:25Z</time>
      </trkpt>
      <trkpt lat="42.55661" lon="2.16545">
        <ele>1607</ele>
        <time>2016-07-06T07:53:26Z</time>
      </trkpt>
      <trkpt lat="42.55665" lon="2.16569">
        <ele>1606</ele>
        <time>2016-07-06T07:53:29Z</time>
      </trkpt>
      <trkpt lat="42.55659" lon="2.16589">
        <ele>1604</ele>
        <time>2016-07-06T07:53:32Z</time>
      </trkpt>
      <trkpt lat="42.55422" lon="2.1675">
        <ele>1587</ele>
        <time>2016-07-06T07:54:03Z</time>
      </trkpt>
      <trkpt lat="42.55396" lon="2.16762">
        <ele>1585</ele>
        <time>2016-07-06T07:54:07Z</time>
      </trkpt>
      <trkpt lat="42.55388" lon="2.16774">
        <ele>1584</ele>
        <time>2016-07-06T07:54:09Z</time>
      </trkpt>
      <trkpt lat="42.55383" lon="2.16792">
        <ele>1583</ele>
        <time>2016-07-06T07:54:13Z</time>
      </trkpt>
      <trkpt lat="42.55386" lon="2.168">
        <ele>1583</ele>
        <time>2016-07-06T07:54:15Z</time>
      </trkpt>
      <trkpt lat="42.5542" lon="2.16818">
        <ele>1582</ele>
        <time>2016-07-06T07:54:22Z</time>
      </trkpt>
      <trkpt lat="42.55613" lon="2.16851">
        <ele>1571</ele>
        <time>2016-07-06T07:54:48Z</time>
      </trkpt>
      <trkpt lat="42.55646" lon="2.17064">
        <ele>1559</ele>
        <time>2016-07-06T07:55:11Z</time>
      </trkpt>
      <trkpt lat="42.55645" lon="2.17074">
        <ele>1558</ele>
        <time>2016-07-06T07:55:12Z</time>
      </trkpt>
      <trkpt lat="42.55619" lon="2.17115">
        <ele>1556</ele>
        <time>2016-07-06T07:55:17Z</time>
      </trkpt>
      <trkpt lat="42.55451" lon="2.17191">
        <ele>1542</ele>
        <time>2016-07-06T07:55:34Z</time>
      </trkpt>
      <trkpt lat="42.55393" lon="2.17187">
        <ele>1539</ele>
        <time>2016-07-06T07:55:40Z</time>
      </trkpt>
      <trkpt lat="42.55373" lon="2.17201">
        <ele>1537</ele>
        <time>2016-07-06T07:55:42Z</time>
      </trkpt>
      <trkpt lat="42.55367" lon="2.17205">
        <ele>1536</ele>
        <time>2016-07-06T07:55:43Z</time>
      </trkpt>
      <trkpt lat="42.55329" lon="2.17363">
        <ele>1527</ele>
        <time>2016-07-06T07:55:56Z</time>
      </trkpt>
      <trkpt lat="42.5532" lon="2.17368">
        <ele>1526</ele>
        <time>2016-07-06T07:55:57Z</time>
      </trkpt>
      <trkpt lat="42.5531" lon="2.17388">
        <ele>1524</ele>
        <time>2016-07-06T07:56:00Z</time>
      </trkpt>
      <trkpt lat="42.55314" lon="2.17397">
        <ele>1524</ele>
        <time>2016-07-06T07:56:01Z</time>
      </trkpt>
      <trkpt lat="42.55323" lon="2.17418">
        <ele>1523</ele>
        <time>2016-07-06T07:56:04Z</time>
      </trkpt>
      <trkpt lat="42.55495" lon="2.17506">
        <ele>1507</ele>
        <time>2016-07-06T07:56:27Z</time>
      </trkpt>
      <trkpt lat="42.55581" lon="2.17472">
        <ele>1500</ele>
        <time>2016-07-06T07:56:40Z</time>
      </trkpt>
      <trkpt lat="42.55827" lon="2.17612">
        <ele>1479</ele>
        <time>2016-07-06T07:57:11Z</time>
      </trkpt>
      <trkpt lat="42.5597" lon="2.1767">
        <ele>1467</ele>
        <time>2016-07-06T07:57:29Z</time>
      </trkpt>
      <trkpt lat="42.55978" lon="2.1771">
        <ele>1464</ele>
        <time>2016-07-06T07:57:33Z</time>
      </trkpt>
      <trkpt lat="42.55976" lon="2.17721">
        <ele>1464</ele>
        <time>2016-07-06T07:57:34Z</time>
      </trkpt>
      <trkpt lat="42.55993" lon="2.17745">
        <ele>1463</ele>
        <time>2016-07-06T07:57:38Z</time>
      </trkpt>
      <trkpt lat="42.56003" lon="2.1774">
        <ele>1462</ele>
        <time>2016-07-06T07:57:40Z</time>
      </trkpt>
      <trkpt lat="42.56005" lon="2.17727">
        <ele>1460</ele>
        <time>2016-07-06T07:57:42Z</time>
      </trkpt>
      <trkpt lat="42.55998" lon="2.17697">
        <ele>1459</ele>
        <time>2016-07-06T07:57:45Z</time>
      </trkpt>
      <trkpt lat="42.55999" lon="2.17687">
        <ele>1458</ele>
        <time>2016-07-06T07:57:46Z</time>
      </trkpt>
      <trkpt lat="42.55989" lon="2.17649">
        <ele>1457</ele>
        <time>2016-07-06T07:57:50Z</time>
      </trkpt>
      <trkpt lat="42.55924" lon="2.17607">
        <ele>1453</ele>
        <time>2016-07-06T07:57:59Z</time>
      </trkpt>
      <trkpt lat="42.55928" lon="2.17596">
        <ele>1453</ele>
        <time>2016-07-06T07:58:00Z</time>
      </trkpt>
      <trkpt lat="42.55932" lon="2.17575">
        <ele>1452</ele>
        <time>2016-07-06T07:58:03Z</time>
      </trkpt>
      <trkpt lat="42.55937" lon="2.17572">
        <ele>1451</ele>
        <time>2016-07-06T07:58:04Z</time>
      </trkpt>
      <trkpt lat="42.55943" lon="2.17574">
        <ele>1451</ele>
        <time>2016-07-06T07:58:06Z</time>
      </trkpt>
      <trkpt lat="42.55956" lon="2.17573">
        <ele>1450</ele>
        <time>2016-07-06T07:58:10Z</time>
      </trkpt>
      <trkpt lat="42.5596" lon="2.17574">
        <ele>1449</ele>
        <time>2016-07-06T07:58:20Z</time>
      </trkpt>
      <trkpt lat="42.55966" lon="2.1758">
        <ele>1449</ele>
        <time>2016-07-06T07:58:28Z</time>
      </trkpt>
      <trkpt lat="42.55978" lon="2.17586">
        <ele>1448</ele>
        <time>2016-07-06T07:58:30Z</time>
      </trkpt>
      <trkpt lat="42.55981" lon="2.17592">
        <ele>1448</ele>
        <time>2016-07-06T07:58:31Z</time>
      </trkpt>
      <trkpt lat="42.55987" lon="2.1759">
        <ele>1448</ele>
        <time>2016-07-06T07:58:32Z</time>
      </trkpt>
      <trkpt lat="42.56039" lon="2.17613">
        <ele>1445</ele>
        <time>2016-07-06T07:58:39Z</time>
      </trkpt>
      <trkpt lat="42.5617" lon="2.17759">
        <ele>1433</ele>
        <time>2016-07-06T07:59:01Z</time>
      </trkpt>
      <trkpt lat="42.56503" lon="2.17767">
        <ele>1407</ele>
        <time>2016-07-06T07:59:32Z</time>
      </trkpt>
      <trkpt lat="42.56763" lon="2.1784">
        <ele>1387</ele>
        <time>2016-07-06T08:00:03Z</time>
      </trkpt>
      <trkpt lat="42.56807" lon="2.17868">
        <ele>1383</ele>
        <time>2016-07-06T08:00:11Z</time>
      </trkpt>
      <trkpt lat="42.56817" lon="2.17871">
        <ele>1378</ele>
        <time>2016-07-06T08:01:13Z</time>
      </trkpt>
      <trkpt lat="42.56998" lon="2.18051">
        <ele>1365</ele>
        <time>2016-07-06T08:01:43Z</time>
      </trkpt>
      <trkpt lat="42.57005" lon="2.18053">
        <ele>1365</ele>
        <time>2016-07-06T08:01:44Z</time>
      </trkpt>
      <trkpt lat="42.57193" lon="2.18253">
        <ele>1352</ele>
        <time>2016-07-06T08:02:15Z</time>
      </trkpt>
      <trkpt lat="42.57242" lon="2.18306">
        <ele>1349</ele>
        <time>2016-07-06T08:02:26Z</time>
      </trkpt>
      <trkpt lat="42.5724" lon="2.1831">
        <ele>1348</ele>
        <time>2016-07-06T08:02:27Z</time>
      </trkpt>
      <trkpt lat="42.57235" lon="2.18309">
        <ele>1348</ele>
        <time>2016-07-06T08:02:28Z</time>
      </trkpt>
      <trkpt lat="42.5719" lon="2.18274">
        <ele>1345</ele>
        <time>2016-07-06T08:02:37Z</time>
      </trkpt>
      <trkpt lat="42.57186" lon="2.18278">
        <ele>1345</ele>
        <time>2016-07-06T08:02:38Z</time>
      </trkpt>
      <trkpt lat="42.57183" lon="2.18282">
        <ele>1344</ele>
        <time>2016-07-06T08:02:39Z</time>
      </trkpt>
      <trkpt lat="42.57184" lon="2.18295">
        <ele>1343</ele>
        <time>2016-07-06T08:02:41Z</time>
      </trkpt>
      <trkpt lat="42.57217" lon="2.1833">
        <ele>1341</ele>
        <time>2016-07-06T08:02:48Z</time>
      </trkpt>
      <trkpt lat="42.5724" lon="2.18381">
        <ele>1335</ele>
        <time>2016-07-06T08:02:55Z</time>
      </trkpt>
      <trkpt lat="42.57245" lon="2.18383">
        <ele>1335</ele>
        <time>2016-07-06T08:02:56Z</time>
      </trkpt>
      <trkpt lat="42.57247" lon="2.18394">
        <ele>1334</ele>
        <time>2016-07-06T08:02:58Z</time>
      </trkpt>
      <trkpt lat="42.57244" lon="2.184">
        <ele>1333</ele>
        <time>2016-07-06T08:02:59Z</time>
      </trkpt>
      <trkpt lat="42.57238" lon="2.18402">
        <ele>1333</ele>
        <time>2016-07-06T08:03:00Z</time>
      </trkpt>
      <trkpt lat="42.57004" lon="2.18269">
        <ele>1319</ele>
        <time>2016-07-06T08:03:31Z</time>
      </trkpt>
      <trkpt lat="42.56914" lon="2.18225">
        <ele>1313</ele>
        <time>2016-07-06T08:03:42Z</time>
      </trkpt>
      <trkpt lat="42.56882" lon="2.1815">
        <ele>1310</ele>
        <time>2016-07-06T08:03:49Z</time>
      </trkpt>
      <trkpt lat="42.56863" lon="2.1814">
        <ele>1308</ele>
        <time>2016-07-06T08:03:51Z</time>
      </trkpt>
      <trkpt lat="42.56802" lon="2.18144">
        <ele>1304</ele>
        <time>2016-07-06T08:03:57Z</time>
      </trkpt>
      <trkpt lat="42.56794" lon="2.18146">
        <ele>1304</ele>
        <time>2016-07-06T08:03:58Z</time>
      </trkpt>
      <trkpt lat="42.56732" lon="2.18183">
        <ele>1299</ele>
        <time>2016-07-06T08:04:06Z</time>
      </trkpt>
      <trkpt lat="42.56725" lon="2.18176">
        <ele>1298</ele>
        <time>2016-07-06T08:04:07Z</time>
      </trkpt>
      <trkpt lat="42.5671" lon="2.18174">
        <ele>1297</ele>
        <time>2016-07-06T08:04:09Z</time>
      </trkpt>
      <trkpt lat="42.56681" lon="2.18143">
        <ele>1293</ele>
        <time>2016-07-06T08:04:14Z</time>
      </trkpt>
      <trkpt lat="42.56659" lon="2.1815">
        <ele>1291</ele>
        <time>2016-07-06T08:04:17Z</time>
      </trkpt>
      <trkpt lat="42.56643" lon="2.18166">
        <ele>1289</ele>
        <time>2016-07-06T08:04:20Z</time>
      </trkpt>
      <trkpt lat="42.5665" lon="2.18176">
        <ele>1289</ele>
        <time>2016-07-06T08:04:21Z</time>
      </trkpt>
      <trkpt lat="42.56758" lon="2.18359">
        <ele>1279</ele>
        <time>2016-07-06T08:04:39Z</time>
      </trkpt>
      <trkpt lat="42.56772" lon="2.18375">
        <ele>1278</ele>
        <time>2016-07-06T08:04:41Z</time>
      </trkpt>
      <trkpt lat="42.56846" lon="2.18402">
        <ele>1274</ele>
        <time>2016-07-06T08:04:48Z</time>
      </trkpt>
      <trkpt lat="42.56848" lon="2.18393">
        <ele>1272</ele>
        <time>2016-07-06T08:05:13Z</time>
      </trkpt>
      <trkpt lat="42.56863" lon="2.18394">
        <ele>1271</ele>
        <time>2016-07-06T08:05:17Z</time>
      </trkpt>
      <trkpt lat="42.56874" lon="2.18405">
        <ele>1270</ele>
        <time>2016-07-06T08:05:19Z</time>
      </trkpt>
      <trkpt lat="42.56878" lon="2.18435">
        <ele>1268</ele>
        <time>2016-07-06T08:05:22Z</time>
      </trkpt>
      <trkpt lat="42.56918" lon="2.18563">
        <ele>1261</ele>
        <time>2016-07-06T08:05:33Z</time>
      </trkpt>
      <trkpt lat="42.56939" lon="2.18578">
        <ele>1260</ele>
        <time>2016-07-06T08:05:35Z</time>
      </trkpt>
      <trkpt lat="42.57094" lon="2.18911">
        <ele>1239</ele>
        <time>2016-07-06T08:06:05Z</time>
      </trkpt>
      <trkpt lat="42.57189" lon="2.19271">
        <ele>1216</ele>
        <time>2016-07-06T08:06:36Z</time>
      </trkpt>
      <trkpt lat="42.57202" lon="2.19404">
        <ele>1208</ele>
        <time>2016-07-06T08:06:47Z</time>
      </trkpt>
      <trkpt lat="42.573" lon="2.19651">
        <ele>1192</ele>
        <time>2016-07-06T08:07:12Z</time>
      </trkpt>
      <trkpt lat="42.573" lon="2.19659">
        <ele>1192</ele>
        <time>2016-07-06T08:07:13Z</time>
      </trkpt>
      <trkpt lat="42.57132" lon="2.20004">
        <ele>1168</ele>
        <time>2016-07-06T08:07:44Z</time>
      </trkpt>
      <trkpt lat="42.57127" lon="2.20004">
        <ele>1167</ele>
        <time>2016-07-06T08:07:45Z</time>
      </trkpt>
      <trkpt lat="42.57012" lon="2.19975">
        <ele>1158</ele>
        <time>2016-07-06T08:08:01Z</time>
      </trkpt>
      <trkpt lat="42.5698" lon="2.19952">
        <ele>1155</ele>
        <time>2016-07-06T08:08:05Z</time>
      </trkpt>
      <trkpt lat="42.56921" lon="2.19954">
        <ele>1151</ele>
        <time>2016-07-06T08:08:11Z</time>
      </trkpt>
      <trkpt lat="42.5691" lon="2.19959">
        <ele>1149</ele>
        <time>2016-07-06T08:08:13Z</time>
      </trkpt>
      <trkpt lat="42.56903" lon="2.19985">
        <ele>1148</ele>
        <time>2016-07-06T08:08:15Z</time>
      </trkpt>
      <trkpt lat="42.56834" lon="2.20158">
        <ele>1136</ele>
        <time>2016-07-06T08:08:32Z</time>
      </trkpt>
      <trkpt lat="42.56829" lon="2.20162">
        <ele>1136</ele>
        <time>2016-07-06T08:08:33Z</time>
      </trkpt>
      <trkpt lat="42.5671" lon="2.20153">
        <ele>1126</ele>
        <time>2016-07-06T08:08:49Z</time>
      </trkpt>
      <trkpt lat="42.56592" lon="2.20071">
        <ele>1117</ele>
        <time>2016-07-06T08:09:05Z</time>
      </trkpt>
      <trkpt lat="42.56588" lon="2.20077">
        <ele>1117</ele>
        <time>2016-07-06T08:09:06Z</time>
      </trkpt>
      <trkpt lat="42.56585" lon="2.20082">
        <ele>1116</ele>
        <time>2016-07-06T08:09:07Z</time>
      </trkpt>
      <trkpt lat="42.56585" lon="2.20087">
        <ele>1116</ele>
        <time>2016-07-06T08:09:08Z</time>
      </trkpt>
      <trkpt lat="42.56586" lon="2.20091">
        <ele>1116</ele>
        <time>2016-07-06T08:09:09Z</time>
      </trkpt>
      <trkpt lat="42.56588" lon="2.20094">
        <ele>1115</ele>
        <time>2016-07-06T08:09:10Z</time>
      </trkpt>
      <trkpt lat="42.56592" lon="2.20093">
        <ele>1115</ele>
        <time>2016-07-06T08:09:12Z</time>
      </trkpt>
      <trkpt lat="42.56774" lon="2.20211">
        <ele>1102</ele>
        <time>2016-07-06T08:09:43Z</time>
      </trkpt>
      <trkpt lat="42.56793" lon="2.20223">
        <ele>1101</ele>
        <time>2016-07-06T08:09:45Z</time>
      </trkpt>
      <trkpt lat="42.56798" lon="2.20233">
        <ele>1101</ele>
        <time>2016-07-06T08:09:46Z</time>
      </trkpt>
      <trkpt lat="42.56828" lon="2.20264">
        <ele>1098</ele>
        <time>2016-07-06T08:09:51Z</time>
      </trkpt>
      <trkpt lat="42.56843" lon="2.20262">
        <ele>1097</ele>
        <time>2016-07-06T08:09:53Z</time>
      </trkpt>
      <trkpt lat="42.56889" lon="2.20214">
        <ele>1093</ele>
        <time>2016-07-06T08:10:00Z</time>
      </trkpt>
      <trkpt lat="42.56927" lon="2.20153">
        <ele>1089</ele>
        <time>2016-07-06T08:10:06Z</time>
      </trkpt>
      <trkpt lat="42.56938" lon="2.20151">
        <ele>1088</ele>
        <time>2016-07-06T08:10:07Z</time>
      </trkpt>
      <trkpt lat="42.56946" lon="2.20144">
        <ele>1087</ele>
        <time>2016-07-06T08:10:08Z</time>
      </trkpt>
      <trkpt lat="42.56956" lon="2.20142">
        <ele>1087</ele>
        <time>2016-07-06T08:10:09Z</time>
      </trkpt>
      <trkpt lat="42.5698" lon="2.20113">
        <ele>1084</ele>
        <time>2016-07-06T08:10:14Z</time>
      </trkpt>
      <trkpt lat="42.56993" lon="2.20108">
        <ele>1083</ele>
        <time>2016-07-06T08:10:16Z</time>
      </trkpt>
      <trkpt lat="42.57019" lon="2.20121">
        <ele>1081</ele>
        <time>2016-07-06T08:10:20Z</time>
      </trkpt>
      <trkpt lat="42.57026" lon="2.20118">
        <ele>1081</ele>
        <time>2016-07-06T08:10:21Z</time>
      </trkpt>
      <trkpt lat="42.57098" lon="2.20164">
        <ele>1076</ele>
        <time>2016-07-06T08:10:31Z</time>
      </trkpt>
      <trkpt lat="42.57301" lon="2.20096">
        <ele>1063</ele>
        <time>2016-07-06T08:10:54Z</time>
      </trkpt>
      <trkpt lat="42.57312" lon="2.20073">
        <ele>1061</ele>
        <time>2016-07-06T08:10:57Z</time>
      </trkpt>
      <trkpt lat="42.5732" lon="2.20049">
        <ele>1059</ele>
        <time>2016-07-06T08:10:59Z</time>
      </trkpt>
      <trkpt lat="42.5736" lon="2.20019">
        <ele>1054</ele>
        <time>2016-07-06T08:11:05Z</time>
      </trkpt>
      <trkpt lat="42.57368" lon="2.20024">
        <ele>1053</ele>
        <time>2016-07-06T08:11:06Z</time>
      </trkpt>
      <trkpt lat="42.57375" lon="2.20042">
        <ele>1052</ele>
        <time>2016-07-06T08:11:10Z</time>
      </trkpt>
      <trkpt lat="42.57384" lon="2.20069">
        <ele>1050</ele>
        <time>2016-07-06T08:11:15Z</time>
      </trkpt>
      <trkpt lat="42.57397" lon="2.20073">
        <ele>1049</ele>
        <time>2016-07-06T08:11:17Z</time>
      </trkpt>
      <trkpt lat="42.57509" lon="2.20051">
        <ele>1042</ele>
        <time>2016-07-06T08:11:36Z</time>
      </trkpt>
      <trkpt lat="42.5751" lon="2.20077">
        <ele>1041</ele>
        <time>2016-07-06T08:11:42Z</time>
      </trkpt>
      <trkpt lat="42.57509" lon="2.20084">
        <ele>1040</ele>
        <time>2016-07-06T08:11:45Z</time>
      </trkpt>
      <trkpt lat="42.57506" lon="2.2009">
        <ele>1040</ele>
        <time>2016-07-06T08:11:48Z</time>
      </trkpt>
      <trkpt lat="42.57484" lon="2.20099">
        <ele>1040</ele>
        <time>2016-07-06T08:11:57Z</time>
      </trkpt>
      <trkpt lat="42.57377" lon="2.20184">
        <ele>1042</ele>
        <time>2016-07-06T08:12:29Z</time>
      </trkpt>
      <trkpt lat="42.57327" lon="2.20236">
        <ele>1045</ele>
        <time>2016-07-06T08:12:46Z</time>
      </trkpt>
      <trkpt lat="42.57246" lon="2.20306">
        <ele>1038</ele>
        <time>2016-07-06T08:13:14Z</time>
      </trkpt>
      <trkpt lat="42.57149" lon="2.20341">
        <ele>1043</ele>
        <time>2016-07-06T08:13:44Z</time>
      </trkpt>
      <trkpt lat="42.5706" lon="2.20397">
        <ele>1052</ele>
        <time>2016-07-06T08:14:15Z</time>
      </trkpt>
      <trkpt lat="42.56998" lon="2.20422">
        <ele>1056</ele>
        <time>2016-07-06T08:14:35Z</time>
      </trkpt>
      <trkpt lat="42.56931" lon="2.20528">
        <ele>1063</ele>
        <time>2016-07-06T08:15:06Z</time>
      </trkpt>
      <trkpt lat="42.56864" lon="2.20614">
        <ele>1069</ele>
        <time>2016-07-06T08:15:31Z</time>
      </trkpt>
      <trkpt lat="42.5678" lon="2.2062">
        <ele>1071</ele>
        <time>2016-07-06T08:15:51Z</time>
      </trkpt>
      <trkpt lat="42.56759" lon="2.20675">
        <ele>1073</ele>
        <time>2016-07-06T08:16:03Z</time>
      </trkpt>
      <trkpt lat="42.56654" lon="2.20732">
        <ele>1079</ele>
        <time>2016-07-06T08:16:33Z</time>
      </trkpt>
      <trkpt lat="42.56584" lon="2.20709">
        <ele>1078</ele>
        <time>2016-07-06T08:16:48Z</time>
      </trkpt>
      <trkpt lat="42.56573" lon="2.20724">
        <ele>1077</ele>
        <time>2016-07-06T08:16:51Z</time>
      </trkpt>
      <trkpt lat="42.56531" lon="2.2093">
        <ele>1073</ele>
        <time>2016-07-06T08:17:17Z</time>
      </trkpt>
      <trkpt lat="42.56495" lon="2.20923">
        <ele>1071</ele>
        <time>2016-07-06T08:17:22Z</time>
      </trkpt>
      <trkpt lat="42.56453" lon="2.20885">
        <ele>1068</ele>
        <time>2016-07-06T08:17:28Z</time>
      </trkpt>
      <trkpt lat="42.56392" lon="2.20743">
        <ele>1061</ele>
        <time>2016-07-06T08:17:44Z</time>
      </trkpt>
      <trkpt lat="42.56386" lon="2.20741">
        <ele>1061</ele>
        <time>2016-07-06T08:17:45Z</time>
      </trkpt>
      <trkpt lat="42.5637" lon="2.20754">
        <ele>1060</ele>
        <time>2016-07-06T08:17:48Z</time>
      </trkpt>
      <trkpt lat="42.5636" lon="2.20799">
        <ele>1057</ele>
        <time>2016-07-06T08:17:53Z</time>
      </trkpt>
      <trkpt lat="42.56361" lon="2.20955">
        <ele>1055</ele>
        <time>2016-07-06T08:18:09Z</time>
      </trkpt>
      <trkpt lat="42.56353" lon="2.20963">
        <ele>1055</ele>
        <time>2016-07-06T08:18:11Z</time>
      </trkpt>
      <trkpt lat="42.56336" lon="2.20985">
        <ele>1055</ele>
        <time>2016-07-06T08:18:15Z</time>
      </trkpt>
      <trkpt lat="42.56318" lon="2.21176">
        <ele>1051</ele>
        <time>2016-07-06T08:18:36Z</time>
      </trkpt>
      <trkpt lat="42.56304" lon="2.2119">
        <ele>1051</ele>
        <time>2016-07-06T08:18:39Z</time>
      </trkpt>
      <trkpt lat="42.56303" lon="2.21195">
        <ele>1051</ele>
        <time>2016-07-06T08:18:40Z</time>
      </trkpt>
      <trkpt lat="42.56303" lon="2.21201">
        <ele>1051</ele>
        <time>2016-07-06T08:18:41Z</time>
      </trkpt>
      <trkpt lat="42.56313" lon="2.21224">
        <ele>1050</ele>
        <time>2016-07-06T08:18:44Z</time>
      </trkpt>
      <trkpt lat="42.56333" lon="2.21262">
        <ele>1050</ele>
        <time>2016-07-06T08:18:49Z</time>
      </trkpt>
      <trkpt lat="42.5634" lon="2.21319">
        <ele>1050</ele>
        <time>2016-07-06T08:18:56Z</time>
      </trkpt>
      <trkpt lat="42.56334" lon="2.21345">
        <ele>1050</ele>
        <time>2016-07-06T08:18:59Z</time>
      </trkpt>
      <trkpt lat="42.56262" lon="2.21519">
        <ele>1047</ele>
        <time>2016-07-06T08:19:21Z</time>
      </trkpt>
      <trkpt lat="42.56206" lon="2.21575">
        <ele>1045</ele>
        <time>2016-07-06T08:19:32Z</time>
      </trkpt>
      <trkpt lat="42.56201" lon="2.21569">
        <ele>1044</ele>
        <time>2016-07-06T08:19:33Z</time>
      </trkpt>
      <trkpt lat="42.56199" lon="2.21579">
        <ele>1044</ele>
        <time>2016-07-06T08:19:35Z</time>
      </trkpt>
      <trkpt lat="42.562" lon="2.21587">
        <ele>1044</ele>
        <time>2016-07-06T08:19:37Z</time>
      </trkpt>
      <trkpt lat="42.56282" lon="2.21738">
        <ele>1041</ele>
        <time>2016-07-06T08:20:06Z</time>
      </trkpt>
      <trkpt lat="42.56266" lon="2.2175">
        <ele>1041</ele>
        <time>2016-07-06T08:20:09Z</time>
      </trkpt>
      <trkpt lat="42.56259" lon="2.21752">
        <ele>1040</ele>
        <time>2016-07-06T08:20:10Z</time>
      </trkpt>
      <trkpt lat="42.56085" lon="2.21816">
        <ele>1036</ele>
        <time>2016-07-06T08:20:40Z</time>
      </trkpt>
      <trkpt lat="42.56042" lon="2.21839">
        <ele>1035</ele>
        <time>2016-07-06T08:20:47Z</time>
      </trkpt>
      <trkpt lat="42.56014" lon="2.21907">
        <ele>1033</ele>
        <time>2016-07-06T08:20:55Z</time>
      </trkpt>
      <trkpt lat="42.56007" lon="2.21909">
        <ele>1032</ele>
        <time>2016-07-06T08:20:56Z</time>
      </trkpt>
      <trkpt lat="42.55978" lon="2.2194">
        <ele>1031</ele>
        <time>2016-07-06T08:21:01Z</time>
      </trkpt>
      <trkpt lat="42.55978" lon="2.21981">
        <ele>1029</ele>
        <time>2016-07-06T08:21:06Z</time>
      </trkpt>
      <trkpt lat="42.56001" lon="2.22048">
        <ele>1028</ele>
        <time>2016-07-06T08:21:14Z</time>
      </trkpt>
      <trkpt lat="42.55998" lon="2.22055">
        <ele>1028</ele>
        <time>2016-07-06T08:21:15Z</time>
      </trkpt>
      <trkpt lat="42.5598" lon="2.22094">
        <ele>1027</ele>
        <time>2016-07-06T08:21:21Z</time>
      </trkpt>
      <trkpt lat="42.55988" lon="2.22121">
        <ele>1026</ele>
        <time>2016-07-06T08:21:25Z</time>
      </trkpt>
      <trkpt lat="42.55991" lon="2.22127">
        <ele>1026</ele>
        <time>2016-07-06T08:21:26Z</time>
      </trkpt>
      <trkpt lat="42.56089" lon="2.22209">
        <ele>1023</ele>
        <time>2016-07-06T08:21:44Z</time>
      </trkpt>
      <trkpt lat="42.56078" lon="2.22331">
        <ele>1019</ele>
        <time>2016-07-06T08:21:59Z</time>
      </trkpt>
      <trkpt lat="42.56117" lon="2.22379">
        <ele>1017</ele>
        <time>2016-07-06T08:22:09Z</time>
      </trkpt>
      <trkpt lat="42.56115" lon="2.2239">
        <ele>1017</ele>
        <time>2016-07-06T08:22:11Z</time>
      </trkpt>
      <trkpt lat="42.56113" lon="2.22395">
        <ele>1017</ele>
        <time>2016-07-06T08:22:12Z</time>
      </trkpt>
      <trkpt lat="42.56111" lon="2.22397">
        <ele>1017</ele>
        <time>2016-07-06T08:22:13Z</time>
      </trkpt>
      <trkpt lat="42.56109" lon="2.22402">
        <ele>1017</ele>
        <time>2016-07-06T08:22:15Z</time>
      </trkpt>
      <trkpt lat="42.56109" lon="2.2241">
        <ele>1016</ele>
        <time>2016-07-06T08:22:17Z</time>
      </trkpt>
      <trkpt lat="42.56106" lon="2.22449">
        <ele>1015</ele>
        <time>2016-07-06T08:22:26Z</time>
      </trkpt>
      <trkpt lat="42.56146" lon="2.2252">
        <ele>1014</ele>
        <time>2016-07-06T08:22:43Z</time>
      </trkpt>
      <trkpt lat="42.56139" lon="2.22539">
        <ele>1013</ele>
        <time>2016-07-06T08:22:46Z</time>
      </trkpt>
      <trkpt lat="42.56127" lon="2.22541">
        <ele>1013</ele>
        <time>2016-07-06T08:22:49Z</time>
      </trkpt>
      <trkpt lat="42.56126" lon="2.22545">
        <ele>1013</ele>
        <time>2016-07-06T08:22:50Z</time>
      </trkpt>
      <trkpt lat="42.56114" lon="2.22562">
        <ele>1012</ele>
        <time>2016-07-06T08:23:00Z</time>
      </trkpt>
      <trkpt lat="42.56112" lon="2.22609">
        <ele>1011</ele>
        <time>2016-07-06T08:23:11Z</time>
      </trkpt>
      <trkpt lat="42.56116" lon="2.22627">
        <ele>1011</ele>
        <time>2016-07-06T08:23:14Z</time>
      </trkpt>
      <trkpt lat="42.56123" lon="2.22641">
        <ele>1011</ele>
        <time>2016-07-06T08:23:16Z</time>
      </trkpt>
      <trkpt lat="42.56124" lon="2.2265">
        <ele>1011</ele>
        <time>2016-07-06T08:23:17Z</time>
      </trkpt>
      <trkpt lat="42.56122" lon="2.22689">
        <ele>1010</ele>
        <time>2016-07-06T08:23:22Z</time>
      </trkpt>
      <trkpt lat="42.56124" lon="2.22693">
        <ele>1009</ele>
        <time>2016-07-06T08:23:23Z</time>
      </trkpt>
      <trkpt lat="42.56125" lon="2.227">
        <ele>1009</ele>
        <time>2016-07-06T08:23:24Z</time>
      </trkpt>
      <trkpt lat="42.56127" lon="2.22705">
        <ele>1009</ele>
        <time>2016-07-06T08:23:25Z</time>
      </trkpt>
      <trkpt lat="42.56135" lon="2.22724">
        <ele>1009</ele>
        <time>2016-07-06T08:23:28Z</time>
      </trkpt>
      <trkpt lat="42.56151" lon="2.22732">
        <ele>1008</ele>
        <time>2016-07-06T08:23:32Z</time>
      </trkpt>
      <trkpt lat="42.56318" lon="2.22783">
        <ele>1003</ele>
        <time>2016-07-06T08:24:02Z</time>
      </trkpt>
      <trkpt lat="42.56323" lon="2.22787">
        <ele>1003</ele>
        <time>2016-07-06T08:24:03Z</time>
      </trkpt>
      <trkpt lat="42.56328" lon="2.228">
        <ele>1003</ele>
        <time>2016-07-06T08:24:05Z</time>
      </trkpt>
      <trkpt lat="42.56413" lon="2.22874">
        <ele>999</ele>
        <time>2016-07-06T08:24:21Z</time>
      </trkpt>
      <trkpt lat="42.56419" lon="2.22878">
        <ele>999</ele>
        <time>2016-07-06T08:24:22Z</time>
      </trkpt>
      <trkpt lat="42.56425" lon="2.22879">
        <ele>999</ele>
        <time>2016-07-06T08:24:23Z</time>
      </trkpt>
      <trkpt lat="42.56434" lon="2.22885">
        <ele>999</ele>
        <time>2016-07-06T08:24:25Z</time>
      </trkpt>
      <trkpt lat="42.56437" lon="2.22905">
        <ele>998</ele>
        <time>2016-07-06T08:24:28Z</time>
      </trkpt>
      <trkpt lat="42.56436" lon="2.22908">
        <ele>998</ele>
        <time>2016-07-06T08:24:29Z</time>
      </trkpt>
      <trkpt lat="42.56432" lon="2.22912">
        <ele>997</ele>
        <time>2016-07-06T08:24:30Z</time>
      </trkpt>
      <trkpt lat="42.56385" lon="2.22934">
        <ele>996</ele>
        <time>2016-07-06T08:24:38Z</time>
      </trkpt>
      <trkpt lat="42.56368" lon="2.22936">
        <ele>995</ele>
        <time>2016-07-06T08:24:41Z</time>
      </trkpt>
      <trkpt lat="42.56347" lon="2.22926">
        <ele>995</ele>
        <time>2016-07-06T08:24:44Z</time>
      </trkpt>
      <trkpt lat="42.56323" lon="2.2294">
        <ele>994</ele>
        <time>2016-07-06T08:24:49Z</time>
      </trkpt>
      <trkpt lat="42.56305" lon="2.2294">
        <ele>993</ele>
        <time>2016-07-06T08:24:52Z</time>
      </trkpt>
      <trkpt lat="42.56299" lon="2.22947">
        <ele>993</ele>
        <time>2016-07-06T08:24:53Z</time>
      </trkpt>
      <trkpt lat="42.56296" lon="2.22955">
        <ele>992</ele>
        <time>2016-07-06T08:24:54Z</time>
      </trkpt>
      <trkpt lat="42.56293" lon="2.22961">
        <ele>992</ele>
        <time>2016-07-06T08:24:55Z</time>
      </trkpt>
      <trkpt lat="42.56282" lon="2.23046">
        <ele>990</ele>
        <time>2016-07-06T08:25:04Z</time>
      </trkpt>
      <trkpt lat="42.56273" lon="2.23055">
        <ele>989</ele>
        <time>2016-07-06T08:25:06Z</time>
      </trkpt>
      <trkpt lat="42.56267" lon="2.23055">
        <ele>989</ele>
        <time>2016-07-06T08:25:07Z</time>
      </trkpt>
      <trkpt lat="42.56216" lon="2.23038">
        <ele>986</ele>
        <time>2016-07-06T08:25:17Z</time>
      </trkpt>
      <trkpt lat="42.56161" lon="2.23079">
        <ele>984</ele>
        <time>2016-07-06T08:25:27Z</time>
      </trkpt>
      <trkpt lat="42.5596" lon="2.23036">
        <ele>974</ele>
        <time>2016-07-06T08:25:58Z</time>
      </trkpt>
      <trkpt lat="42.55934" lon="2.23017">
        <ele>972</ele>
        <time>2016-07-06T08:26:03Z</time>
      </trkpt>
      <trkpt lat="42.55924" lon="2.23025">
        <ele>971</ele>
        <time>2016-07-06T08:26:05Z</time>
      </trkpt>
      <trkpt lat="42.55918" lon="2.23038">
        <ele>970</ele>
        <time>2016-07-06T08:26:07Z</time>
      </trkpt>
      <trkpt lat="42.55936" lon="2.23193">
        <ele>960</ele>
        <time>2016-07-06T08:26:22Z</time>
      </trkpt>
      <trkpt lat="42.55951" lon="2.23242">
        <ele>958</ele>
        <time>2016-07-06T08:26:27Z</time>
      </trkpt>
      <trkpt lat="42.55946" lon="2.23252">
        <ele>957</ele>
        <time>2016-07-06T08:26:28Z</time>
      </trkpt>
      <trkpt lat="42.5595" lon="2.2331">
        <ele>955</ele>
        <time>2016-07-06T08:26:33Z</time>
      </trkpt>
      <trkpt lat="42.55939" lon="2.23372">
        <ele>952</ele>
        <time>2016-07-06T08:26:39Z</time>
      </trkpt>
      <trkpt lat="42.55951" lon="2.23411">
        <ele>949</ele>
        <time>2016-07-06T08:26:43Z</time>
      </trkpt>
      <trkpt lat="42.55947" lon="2.23429">
        <ele>948</ele>
        <time>2016-07-06T08:26:45Z</time>
      </trkpt>
      <trkpt lat="42.55943" lon="2.23434">
        <ele>948</ele>
        <time>2016-07-06T08:26:46Z</time>
      </trkpt>
      <trkpt lat="42.55933" lon="2.23436">
        <ele>947</ele>
        <time>2016-07-06T08:26:47Z</time>
      </trkpt>
      <trkpt lat="42.55903" lon="2.23435">
        <ele>946</ele>
        <time>2016-07-06T08:26:51Z</time>
      </trkpt>
      <trkpt lat="42.55856" lon="2.23474">
        <ele>942</ele>
        <time>2016-07-06T08:26:58Z</time>
      </trkpt>
      <trkpt lat="42.55828" lon="2.23477">
        <ele>940</ele>
        <time>2016-07-06T08:27:01Z</time>
      </trkpt>
      <trkpt lat="42.55742" lon="2.23567">
        <ele>934</ele>
        <time>2016-07-06T08:27:14Z</time>
      </trkpt>
      <trkpt lat="42.55738" lon="2.23582">
        <ele>933</ele>
        <time>2016-07-06T08:27:16Z</time>
      </trkpt>
      <trkpt lat="42.55778" lon="2.2373">
        <ele>924</ele>
        <time>2016-07-06T08:27:31Z</time>
      </trkpt>
      <trkpt lat="42.55771" lon="2.23757">
        <ele>923</ele>
        <time>2016-07-06T08:27:34Z</time>
      </trkpt>
      <trkpt lat="42.55761" lon="2.23767">
        <ele>922</ele>
        <time>2016-07-06T08:27:36Z</time>
      </trkpt>
      <trkpt lat="42.55748" lon="2.23768">
        <ele>921</ele>
        <time>2016-07-06T08:27:38Z</time>
      </trkpt>
      <trkpt lat="42.55728" lon="2.23804">
        <ele>919</ele>
        <time>2016-07-06T08:27:43Z</time>
      </trkpt>
      <trkpt lat="42.55646" lon="2.23983">
        <ele>908</ele>
        <time>2016-07-06T08:28:03Z</time>
      </trkpt>
      <trkpt lat="42.55678" lon="2.24165">
        <ele>895</ele>
        <time>2016-07-06T08:28:34Z</time>
      </trkpt>
      <trkpt lat="42.55698" lon="2.24461">
        <ele>879</ele>
        <time>2016-07-06T08:29:05Z</time>
      </trkpt>
      <trkpt lat="42.55692" lon="2.24522">
        <ele>876</ele>
        <time>2016-07-06T08:29:11Z</time>
      </trkpt>
      <trkpt lat="42.55719" lon="2.24602">
        <ele>870</ele>
        <time>2016-07-06T08:29:24Z</time>
      </trkpt>
      <trkpt lat="42.55715" lon="2.24608">
        <ele>869</ele>
        <time>2016-07-06T08:30:09Z</time>
      </trkpt>
      <trkpt lat="42.55712" lon="2.24615">
        <ele>869</ele>
        <time>2016-07-06T08:30:10Z</time>
      </trkpt>
      <trkpt lat="42.5567" lon="2.24628">
        <ele>868</ele>
        <time>2016-07-06T08:30:17Z</time>
      </trkpt>
      <trkpt lat="42.55667" lon="2.24633">
        <ele>868</ele>
        <time>2016-07-06T08:30:18Z</time>
      </trkpt>
      <trkpt lat="42.55652" lon="2.24633">
        <ele>867</ele>
        <time>2016-07-06T08:30:20Z</time>
      </trkpt>
      <trkpt lat="42.5551" lon="2.24623">
        <ele>855</ele>
        <time>2016-07-06T08:30:39Z</time>
      </trkpt>
      <trkpt lat="42.55508" lon="2.24632">
        <ele>854</ele>
        <time>2016-07-06T08:30:40Z</time>
      </trkpt>
      <trkpt lat="42.555" lon="2.24658">
        <ele>853</ele>
        <time>2016-07-06T08:30:43Z</time>
      </trkpt>
      <trkpt lat="42.55464" lon="2.24681">
        <ele>849</ele>
        <time>2016-07-06T08:30:48Z</time>
      </trkpt>
      <trkpt lat="42.55372" lon="2.24711">
        <ele>840</ele>
        <time>2016-07-06T08:31:01Z</time>
      </trkpt>
      <trkpt lat="42.55332" lon="2.25042">
        <ele>819</ele>
        <time>2016-07-06T08:31:31Z</time>
      </trkpt>
      <trkpt lat="42.55313" lon="2.25245">
        <ele>810</ele>
        <time>2016-07-06T08:31:58Z</time>
      </trkpt>
      <trkpt lat="42.55387" lon="2.25514">
        <ele>797</ele>
        <time>2016-07-06T08:32:24Z</time>
      </trkpt>
      <trkpt lat="42.55377" lon="2.2552">
        <ele>797</ele>
        <time>2016-07-06T08:32:25Z</time>
      </trkpt>
      <trkpt lat="42.55361" lon="2.25553">
        <ele>795</ele>
        <time>2016-07-06T08:32:28Z</time>
      </trkpt>
      <trkpt lat="42.55365" lon="2.25564">
        <ele>794</ele>
        <time>2016-07-06T08:32:29Z</time>
      </trkpt>
      <trkpt lat="42.55361" lon="2.25589">
        <ele>793</ele>
        <time>2016-07-06T08:32:32Z</time>
      </trkpt>
      <trkpt lat="42.55365" lon="2.25598">
        <ele>792</ele>
        <time>2016-07-06T08:32:34Z</time>
      </trkpt>
      <trkpt lat="42.55394" lon="2.25621">
        <ele>790</ele>
        <time>2016-07-06T08:32:40Z</time>
      </trkpt>
      <trkpt lat="42.55405" lon="2.25658">
        <ele>787</ele>
        <time>2016-07-06T08:32:45Z</time>
      </trkpt>
      <trkpt lat="42.55499" lon="2.25767">
        <ele>779</ele>
        <time>2016-07-06T08:33:01Z</time>
      </trkpt>
      <trkpt lat="42.55532" lon="2.25904">
        <ele>766</ele>
        <time>2016-07-06T08:33:44Z</time>
      </trkpt>
      <trkpt lat="42.55554" lon="2.25924">
        <ele>766</ele>
        <time>2016-07-06T08:33:49Z</time>
      </trkpt>
      <trkpt lat="42.55647" lon="2.25918">
        <ele>760</ele>
        <time>2016-07-06T08:34:02Z</time>
      </trkpt>
      <trkpt lat="42.55678" lon="2.25881">
        <ele>757</ele>
        <time>2016-07-06T08:34:07Z</time>
      </trkpt>
      <trkpt lat="42.55704" lon="2.25882">
        <ele>756</ele>
        <time>2016-07-06T08:34:10Z</time>
      </trkpt>
      <trkpt lat="42.55773" lon="2.2589">
        <ele>751</ele>
        <time>2016-07-06T08:34:18Z</time>
      </trkpt>
      <trkpt lat="42.55941" lon="2.2579">
        <ele>737</ele>
        <time>2016-07-06T08:34:46Z</time>
      </trkpt>
      <trkpt lat="42.55961" lon="2.25802">
        <ele>736</ele>
        <time>2016-07-06T08:34:49Z</time>
      </trkpt>
      <trkpt lat="42.55974" lon="2.25794">
        <ele>734</ele>
        <time>2016-07-06T08:34:51Z</time>
      </trkpt>
      <trkpt lat="42.55978" lon="2.25784">
        <ele>734</ele>
        <time>2016-07-06T08:34:52Z</time>
      </trkpt>
      <trkpt lat="42.56005" lon="2.25769">
        <ele>732</ele>
        <time>2016-07-06T08:34:56Z</time>
      </trkpt>
      <trkpt lat="42.56037" lon="2.258">
        <ele>730</ele>
        <time>2016-07-06T08:35:01Z</time>
      </trkpt>
      <trkpt lat="42.56127" lon="2.25788">
        <ele>724</ele>
        <time>2016-07-06T08:35:11Z</time>
      </trkpt>
      <trkpt lat="42.5616" lon="2.25765">
        <ele>722</ele>
        <time>2016-07-06T08:35:15Z</time>
      </trkpt>
      <trkpt lat="42.56191" lon="2.25768">
        <ele>719</ele>
        <time>2016-07-06T08:35:19Z</time>
      </trkpt>
      <trkpt lat="42.56212" lon="2.25754">
        <ele>718</ele>
        <time>2016-07-06T08:35:22Z</time>
      </trkpt>
      <trkpt lat="42.56251" lon="2.25748">
        <ele>715</ele>
        <time>2016-07-06T08:35:28Z</time>
      </trkpt>
      <trkpt lat="42.56253" lon="2.25744">
        <ele>715</ele>
        <time>2016-07-06T08:35:29Z</time>
      </trkpt>
      <trkpt lat="42.56376" lon="2.25676">
        <ele>709</ele>
        <time>2016-07-06T08:35:54Z</time>
      </trkpt>
      <trkpt lat="42.56394" lon="2.25686">
        <ele>708</ele>
        <time>2016-07-06T08:35:59Z</time>
      </trkpt>
      <trkpt lat="42.56394" lon="2.25695">
        <ele>707</ele>
        <time>2016-07-06T08:36:01Z</time>
      </trkpt>
      <trkpt lat="42.56395" lon="2.25711">
        <ele>707</ele>
        <time>2016-07-06T08:36:05Z</time>
      </trkpt>
      <trkpt lat="42.56391" lon="2.25718">
        <ele>707</ele>
        <time>2016-07-06T08:36:08Z</time>
      </trkpt>
      <trkpt lat="42.56375" lon="2.25726">
        <ele>706</ele>
        <time>2016-07-06T08:36:13Z</time>
      </trkpt>
      <trkpt lat="42.56351" lon="2.25734">
        <ele>705</ele>
        <time>2016-07-06T08:36:18Z</time>
      </trkpt>
      <trkpt lat="42.5618" lon="2.25855">
        <ele>691</ele>
        <time>2016-07-06T08:36:51Z</time>
      </trkpt>
      <trkpt lat="42.56178" lon="2.25855">
        <ele>685</ele>
        <time>2016-07-06T08:39:13Z</time>
      </trkpt>
      <trkpt lat="42.56179" lon="2.25859">
        <ele>682</ele>
        <time>2016-07-06T08:41:37Z</time>
      </trkpt>
      <trkpt lat="42.56184" lon="2.25859">
        <ele>681</ele>
        <time>2016-07-06T08:41:50Z</time>
      </trkpt>
      <trkpt lat="42.56191" lon="2.25853">
        <ele>681</ele>
        <time>2016-07-06T08:41:54Z</time>
      </trkpt>
      <trkpt lat="42.56206" lon="2.25843">
        <ele>677</ele>
        <time>2016-07-06T08:42:00Z</time>
      </trkpt>
      <trkpt lat="42.56219" lon="2.25837">
        <ele>677</ele>
        <time>2016-07-06T08:42:04Z</time>
      </trkpt>
      <trkpt lat="42.56318" lon="2.25771">
        <ele>685</ele>
        <time>2016-07-06T08:42:35Z</time>
      </trkpt>
      <trkpt lat="42.56395" lon="2.257">
        <ele>692</ele>
        <time>2016-07-06T08:42:59Z</time>
      </trkpt>
      <trkpt lat="42.56397" lon="2.25671">
        <ele>692</ele>
        <time>2016-07-06T08:43:03Z</time>
      </trkpt>
      <trkpt lat="42.56403" lon="2.25669">
        <ele>692</ele>
        <time>2016-07-06T08:43:04Z</time>
      </trkpt>
      <trkpt lat="42.56515" lon="2.25631">
        <ele>702</ele>
        <time>2016-07-06T08:43:35Z</time>
      </trkpt>
      <trkpt lat="42.5655" lon="2.25583">
        <ele>706</ele>
        <time>2016-07-06T08:43:49Z</time>
      </trkpt>
      <trkpt lat="42.56585" lon="2.255">
        <ele>712</ele>
        <time>2016-07-06T08:44:10Z</time>
      </trkpt>
      <trkpt lat="42.56587" lon="2.25502">
        <ele>712</ele>
        <time>2016-07-06T08:44:11Z</time>
      </trkpt>
      <trkpt lat="42.56589" lon="2.25506">
        <ele>713</ele>
        <time>2016-07-06T08:44:12Z</time>
      </trkpt>
      <trkpt lat="42.5659" lon="2.25512">
        <ele>713</ele>
        <time>2016-07-06T08:44:13Z</time>
      </trkpt>
      <trkpt lat="42.5658" lon="2.25534">
        <ele>715</ele>
        <time>2016-07-06T08:44:18Z</time>
      </trkpt>
      <trkpt lat="42.56565" lon="2.25556">
        <ele>717</ele>
        <time>2016-07-06T08:44:25Z</time>
      </trkpt>
      <trkpt lat="42.56566" lon="2.25564">
        <ele>718</ele>
        <time>2016-07-06T08:44:27Z</time>
      </trkpt>
      <trkpt lat="42.56568" lon="2.25567">
        <ele>719</ele>
        <time>2016-07-06T08:44:28Z</time>
      </trkpt>
      <trkpt lat="42.56571" lon="2.25569">
        <ele>719</ele>
        <time>2016-07-06T08:44:29Z</time>
      </trkpt>
      <trkpt lat="42.56579" lon="2.25566">
        <ele>719</ele>
        <time>2016-07-06T08:44:31Z</time>
      </trkpt>
      <trkpt lat="42.56588" lon="2.25553">
        <ele>720</ele>
        <time>2016-07-06T08:44:34Z</time>
      </trkpt>
      <trkpt lat="42.56691" lon="2.25476">
        <ele>728</ele>
        <time>2016-07-06T08:45:05Z</time>
      </trkpt>
      <trkpt lat="42.5678" lon="2.25427">
        <ele>736</ele>
        <time>2016-07-06T08:45:35Z</time>
      </trkpt>
      <trkpt lat="42.56848" lon="2.25351">
        <ele>743</ele>
        <time>2016-07-06T08:46:00Z</time>
      </trkpt>
      <trkpt lat="42.56851" lon="2.25352">
        <ele>744</ele>
        <time>2016-07-06T08:46:01Z</time>
      </trkpt>
      <trkpt lat="42.56853" lon="2.25355">
        <ele>744</ele>
        <time>2016-07-06T08:46:02Z</time>
      </trkpt>
      <trkpt lat="42.56854" lon="2.25359">
        <ele>744</ele>
        <time>2016-07-06T08:46:03Z</time>
      </trkpt>
      <trkpt lat="42.56852" lon="2.25367">
        <ele>745</ele>
        <time>2016-07-06T08:46:05Z</time>
      </trkpt>
      <trkpt lat="42.56804" lon="2.25482">
        <ele>752</ele>
        <time>2016-07-06T08:46:35Z</time>
      </trkpt>
      <trkpt lat="42.56709" lon="2.25566">
        <ele>756</ele>
        <time>2016-07-06T08:47:06Z</time>
      </trkpt>
      <trkpt lat="42.56649" lon="2.2561">
        <ele>759</ele>
        <time>2016-07-06T08:47:24Z</time>
      </trkpt>
      <trkpt lat="42.56649" lon="2.25614">
        <ele>759</ele>
        <time>2016-07-06T08:47:25Z</time>
      </trkpt>
      <trkpt lat="42.56651" lon="2.25619">
        <ele>760</ele>
        <time>2016-07-06T08:47:26Z</time>
      </trkpt>
      <trkpt lat="42.56655" lon="2.25621">
        <ele>760</ele>
        <time>2016-07-06T08:47:27Z</time>
      </trkpt>
      <trkpt lat="42.56664" lon="2.25619">
        <ele>760</ele>
        <time>2016-07-06T08:47:29Z</time>
      </trkpt>
      <trkpt lat="42.56763" lon="2.25556">
        <ele>764</ele>
        <time>2016-07-06T08:47:59Z</time>
      </trkpt>
      <trkpt lat="42.56785" lon="2.25545">
        <ele>766</ele>
        <time>2016-07-06T08:48:34Z</time>
      </trkpt>
      <trkpt lat="42.56833" lon="2.25541">
        <ele>765</ele>
        <time>2016-07-06T08:48:45Z</time>
      </trkpt>
      <trkpt lat="42.56894" lon="2.25419">
        <ele>765</ele>
        <time>2016-07-06T08:49:16Z</time>
      </trkpt>
      <trkpt lat="42.56967" lon="2.2536">
        <ele>769</ele>
        <time>2016-07-06T08:49:49Z</time>
      </trkpt>
      <trkpt lat="42.57029" lon="2.25345">
        <ele>774</ele>
        <time>2016-07-06T08:50:14Z</time>
      </trkpt>
      <trkpt lat="42.57096" lon="2.25377">
        <ele>779</ele>
        <time>2016-07-06T08:50:42Z</time>
      </trkpt>
      <trkpt lat="42.57175" lon="2.25426">
        <ele>786</ele>
        <time>2016-07-06T08:51:13Z</time>
      </trkpt>
      <trkpt lat="42.57191" lon="2.2543">
        <ele>787</ele>
        <time>2016-07-06T08:51:20Z</time>
      </trkpt>
      <trkpt lat="42.57198" lon="2.25423">
        <ele>787</ele>
        <time>2016-07-06T08:51:23Z</time>
      </trkpt>
      <trkpt lat="42.57208" lon="2.25398">
        <ele>788</ele>
        <time>2016-07-06T08:51:29Z</time>
      </trkpt>
      <trkpt lat="42.57191" lon="2.25359">
        <ele>790</ele>
        <time>2016-07-06T08:51:38Z</time>
      </trkpt>
      <trkpt lat="42.57178" lon="2.25328">
        <ele>792</ele>
        <time>2016-07-06T08:51:47Z</time>
      </trkpt>
      <trkpt lat="42.57181" lon="2.2532">
        <ele>792</ele>
        <time>2016-07-06T08:51:49Z</time>
      </trkpt>
      <trkpt lat="42.57192" lon="2.25312">
        <ele>793</ele>
        <time>2016-07-06T08:51:53Z</time>
      </trkpt>
      <trkpt lat="42.57289" lon="2.25231">
        <ele>798</ele>
        <time>2016-07-06T08:52:24Z</time>
      </trkpt>
      <trkpt lat="42.57334" lon="2.2519">
        <ele>799</ele>
        <time>2016-07-06T08:52:37Z</time>
      </trkpt>
      <trkpt lat="42.57337" lon="2.25192">
        <ele>799</ele>
        <time>2016-07-06T08:52:39Z</time>
      </trkpt>
      <trkpt lat="42.57426" lon="2.25119">
        <ele>801</ele>
        <time>2016-07-06T08:53:09Z</time>
      </trkpt>
      <trkpt lat="42.57486" lon="2.25004">
        <ele>804</ele>
        <time>2016-07-06T08:53:40Z</time>
      </trkpt>
      <trkpt lat="42.57496" lon="2.24985">
        <ele>804</ele>
        <time>2016-07-06T08:53:47Z</time>
      </trkpt>
      <trkpt lat="42.57505" lon="2.24978">
        <ele>805</ele>
        <time>2016-07-06T08:53:53Z</time>
      </trkpt>
      <trkpt lat="42.57505" lon="2.24974">
        <ele>806</ele>
        <time>2016-07-06T08:53:55Z</time>
      </trkpt>
      <trkpt lat="42.57502" lon="2.24972">
        <ele>806</ele>
        <time>2016-07-06T08:53:56Z</time>
      </trkpt>
      <trkpt lat="42.57499" lon="2.24973">
        <ele>806</ele>
        <time>2016-07-06T08:53:57Z</time>
      </trkpt>
      <trkpt lat="42.57496" lon="2.24975">
        <ele>806</ele>
        <time>2016-07-06T08:53:58Z</time>
      </trkpt>
      <trkpt lat="42.57424" lon="2.25126">
        <ele>803</ele>
        <time>2016-07-06T08:54:29Z</time>
      </trkpt>
      <trkpt lat="42.57279" lon="2.25243">
        <ele>800</ele>
        <time>2016-07-06T08:54:59Z</time>
      </trkpt>
      <trkpt lat="42.57175" lon="2.25319">
        <ele>797</ele>
        <time>2016-07-06T08:55:27Z</time>
      </trkpt>
      <trkpt lat="42.57176" lon="2.25331">
        <ele>797</ele>
        <time>2016-07-06T08:55:29Z</time>
      </trkpt>
      <trkpt lat="42.57189" lon="2.2536">
        <ele>796</ele>
        <time>2016-07-06T08:55:34Z</time>
      </trkpt>
      <trkpt lat="42.57195" lon="2.25375">
        <ele>796</ele>
        <time>2016-07-06T08:55:36Z</time>
      </trkpt>
      <trkpt lat="42.57205" lon="2.25389">
        <ele>795</ele>
        <time>2016-07-06T08:55:40Z</time>
      </trkpt>
      <trkpt lat="42.57206" lon="2.25401">
        <ele>794</ele>
        <time>2016-07-06T08:55:42Z</time>
      </trkpt>
      <trkpt lat="42.57196" lon="2.25425">
        <ele>793</ele>
        <time>2016-07-06T08:55:48Z</time>
      </trkpt>
      <trkpt lat="42.57191" lon="2.25427">
        <ele>792</ele>
        <time>2016-07-06T08:55:50Z</time>
      </trkpt>
      <trkpt lat="42.57115" lon="2.25399">
        <ele>785</ele>
        <time>2016-07-06T08:56:09Z</time>
      </trkpt>
      <trkpt lat="42.56996" lon="2.2534">
        <ele>777</ele>
        <time>2016-07-06T08:56:33Z</time>
      </trkpt>
      <trkpt lat="42.56878" lon="2.25449">
        <ele>767</ele>
        <time>2016-07-06T08:57:03Z</time>
      </trkpt>
      <trkpt lat="42.56829" lon="2.25546">
        <ele>766</ele>
        <time>2016-07-06T08:57:32Z</time>
      </trkpt>
      <trkpt lat="42.56769" lon="2.25553">
        <ele>769</ele>
        <time>2016-07-06T08:57:49Z</time>
      </trkpt>
      <trkpt lat="42.56723" lon="2.25581">
        <ele>765</ele>
        <time>2016-07-06T08:58:11Z</time>
      </trkpt>
      <trkpt lat="42.56721" lon="2.25579">
        <ele>765</ele>
        <time>2016-07-06T08:58:17Z</time>
      </trkpt>
      <trkpt lat="42.56717" lon="2.25583">
        <ele>765</ele>
        <time>2016-07-06T08:58:27Z</time>
      </trkpt>
      <trkpt lat="42.56711" lon="2.25589">
        <ele>765</ele>
        <time>2016-07-06T08:59:17Z</time>
      </trkpt>
      <trkpt lat="42.56707" lon="2.25589">
        <ele>765</ele>
        <time>2016-07-06T09:02:50Z</time>
      </trkpt>
      <trkpt lat="42.56708" lon="2.25583">
        <ele>765</ele>
        <time>2016-07-06T09:07:06Z</time>
      </trkpt>
      <trkpt lat="42.56711" lon="2.25585">
        <ele>767</ele>
        <time>2016-07-06T09:10:22Z</time>
      </trkpt>
      <trkpt lat="42.56713" lon="2.25578">
        <ele>768</ele>
        <time>2016-07-06T09:12:03Z</time>
      </trkpt>
      <trkpt lat="42.56717" lon="2.25576">
        <ele>768</ele>
        <time>2016-07-06T09:12:09Z</time>
      </trkpt>
      <trkpt lat="42.5672" lon="2.25577">
        <ele>771</ele>
        <time>2016-07-06T09:12:41Z</time>
      </trkpt>
      <trkpt lat="42.56724" lon="2.25573">
        <ele>773</ele>
        <time>2016-07-06T09:12:46Z</time>
      </trkpt>
      <trkpt lat="42.5672" lon="2.25574">
        <ele>774</ele>
        <time>2016-07-06T09:13:15Z</time>
      </trkpt>
      <trkpt lat="42.56718" lon="2.25576">
        <ele>772</ele>
        <time>2016-07-06T09:15:11Z</time>
      </trkpt>
      <trkpt lat="42.56712" lon="2.25579">
        <ele>772</ele>
        <time>2016-07-06T09:15:14Z</time>
      </trkpt>
      <trkpt lat="42.56653" lon="2.25618">
        <ele>766</ele>
        <time>2016-07-06T09:15:34Z</time>
      </trkpt>
      <trkpt lat="42.5665" lon="2.25616">
        <ele>765</ele>
        <time>2016-07-06T09:15:35Z</time>
      </trkpt>
      <trkpt lat="42.56649" lon="2.25612">
        <ele>765</ele>
        <time>2016-07-06T09:15:36Z</time>
      </trkpt>
      <trkpt lat="42.5665" lon="2.25606">
        <ele>765</ele>
        <time>2016-07-06T09:15:37Z</time>
      </trkpt>
      <trkpt lat="42.56658" lon="2.256">
        <ele>764</ele>
        <time>2016-07-06T09:15:38Z</time>
      </trkpt>
      <trkpt lat="42.56801" lon="2.2547">
        <ele>757</ele>
        <time>2016-07-06T09:16:04Z</time>
      </trkpt>
      <trkpt lat="42.5681" lon="2.25435">
        <ele>755</ele>
        <time>2016-07-06T09:16:08Z</time>
      </trkpt>
      <trkpt lat="42.56853" lon="2.25353">
        <ele>751</ele>
        <time>2016-07-06T09:16:18Z</time>
      </trkpt>
      <trkpt lat="42.56847" lon="2.25348">
        <ele>750</ele>
        <time>2016-07-06T09:16:20Z</time>
      </trkpt>
      <trkpt lat="42.56843" lon="2.25346">
        <ele>749</ele>
        <time>2016-07-06T09:16:21Z</time>
      </trkpt>
      <trkpt lat="42.56839" lon="2.25351">
        <ele>749</ele>
        <time>2016-07-06T09:16:22Z</time>
      </trkpt>
      <trkpt lat="42.56633" lon="2.25501">
        <ele>732</ele>
        <time>2016-07-06T09:16:52Z</time>
      </trkpt>
      <trkpt lat="42.56568" lon="2.25563">
        <ele>727</ele>
        <time>2016-07-06T09:17:03Z</time>
      </trkpt>
      <trkpt lat="42.56567" lon="2.25557">
        <ele>726</ele>
        <time>2016-07-06T09:17:04Z</time>
      </trkpt>
      <trkpt lat="42.56567" lon="2.25547">
        <ele>726</ele>
        <time>2016-07-06T09:17:06Z</time>
      </trkpt>
      <trkpt lat="42.56587" lon="2.2551">
        <ele>723</ele>
        <time>2016-07-06T09:17:13Z</time>
      </trkpt>
      <trkpt lat="42.56586" lon="2.25504">
        <ele>723</ele>
        <time>2016-07-06T09:17:14Z</time>
      </trkpt>
      <trkpt lat="42.56584" lon="2.25499">
        <ele>722</ele>
        <time>2016-07-06T09:17:15Z</time>
      </trkpt>
      <trkpt lat="42.56581" lon="2.25497">
        <ele>722</ele>
        <time>2016-07-06T09:17:16Z</time>
      </trkpt>
      <trkpt lat="42.56577" lon="2.25497">
        <ele>721</ele>
        <time>2016-07-06T09:17:17Z</time>
      </trkpt>
      <trkpt lat="42.56566" lon="2.25509">
        <ele>719</ele>
        <time>2016-07-06T09:17:22Z</time>
      </trkpt>
      <trkpt lat="42.56563" lon="2.25528">
        <ele>718</ele>
        <time>2016-07-06T09:17:30Z</time>
      </trkpt>
      <trkpt lat="42.56564" lon="2.25533">
        <ele>717</ele>
        <time>2016-07-06T09:17:42Z</time>
      </trkpt>
      <trkpt lat="42.56562" lon="2.25537">
        <ele>717</ele>
        <time>2016-07-06T09:17:44Z</time>
      </trkpt>
      <trkpt lat="42.56507" lon="2.25626">
        <ele>712</ele>
        <time>2016-07-06T09:17:59Z</time>
      </trkpt>
      <trkpt lat="42.56394" lon="2.25669">
        <ele>703</ele>
        <time>2016-07-06T09:18:19Z</time>
      </trkpt>
      <trkpt lat="42.56388" lon="2.25684">
        <ele>701</ele>
        <time>2016-07-06T09:18:23Z</time>
      </trkpt>
      <trkpt lat="42.56383" lon="2.25681">
        <ele>701</ele>
        <time>2016-07-06T09:18:24Z</time>
      </trkpt>
      <trkpt lat="42.56376" lon="2.25678">
        <ele>701</ele>
        <time>2016-07-06T09:18:26Z</time>
      </trkpt>
      <trkpt lat="42.56355" lon="2.25671">
        <ele>701</ele>
        <time>2016-07-06T09:18:32Z</time>
      </trkpt>
      <trkpt lat="42.5626" lon="2.25734">
        <ele>705</ele>
        <time>2016-07-06T09:19:03Z</time>
      </trkpt>
      <trkpt lat="42.56155" lon="2.25757">
        <ele>710</ele>
        <time>2016-07-06T09:19:34Z</time>
      </trkpt>
      <trkpt lat="42.56131" lon="2.25767">
        <ele>712</ele>
        <time>2016-07-06T09:19:42Z</time>
      </trkpt>
      <trkpt lat="42.56129" lon="2.25779">
        <ele>713</ele>
        <time>2016-07-06T09:20:03Z</time>
      </trkpt>
      <trkpt lat="42.56127" lon="2.25779">
        <ele>713</ele>
        <time>2016-07-06T09:21:09Z</time>
      </trkpt>
      <trkpt lat="42.56122" lon="2.25776">
        <ele>712</ele>
        <time>2016-07-06T09:22:05Z</time>
      </trkpt>
      <trkpt lat="42.56115" lon="2.25781">
        <ele>711</ele>
        <time>2016-07-06T09:22:08Z</time>
      </trkpt>
      <trkpt lat="42.56026" lon="2.25795">
        <ele>715</ele>
        <time>2016-07-06T09:22:34Z</time>
      </trkpt>
      <trkpt lat="42.55972" lon="2.25772">
        <ele>719</ele>
        <time>2016-07-06T09:22:49Z</time>
      </trkpt>
      <trkpt lat="42.55967" lon="2.25776">
        <ele>719</ele>
        <time>2016-07-06T09:22:50Z</time>
      </trkpt>
      <trkpt lat="42.55966" lon="2.25783">
        <ele>720</ele>
        <time>2016-07-06T09:22:51Z</time>
      </trkpt>
      <trkpt lat="42.55959" lon="2.25787">
        <ele>720</ele>
        <time>2016-07-06T09:22:53Z</time>
      </trkpt>
      <trkpt lat="42.55957" lon="2.25791">
        <ele>720</ele>
        <time>2016-07-06T09:22:54Z</time>
      </trkpt>
      <trkpt lat="42.5595" lon="2.25795">
        <ele>721</ele>
        <time>2016-07-06T09:22:56Z</time>
      </trkpt>
      <trkpt lat="42.55943" lon="2.25795">
        <ele>721</ele>
        <time>2016-07-06T09:22:58Z</time>
      </trkpt>
      <trkpt lat="42.55913" lon="2.25772">
        <ele>724</ele>
        <time>2016-07-06T09:23:08Z</time>
      </trkpt>
      <trkpt lat="42.55898" lon="2.25784">
        <ele>725</ele>
        <time>2016-07-06T09:23:13Z</time>
      </trkpt>
      <trkpt lat="42.55879" lon="2.25827">
        <ele>728</ele>
        <time>2016-07-06T09:23:23Z</time>
      </trkpt>
      <trkpt lat="42.55853" lon="2.25834">
        <ele>730</ele>
        <time>2016-07-06T09:23:31Z</time>
      </trkpt>
      <trkpt lat="42.55844" lon="2.25854">
        <ele>731</ele>
        <time>2016-07-06T09:23:36Z</time>
      </trkpt>
      <trkpt lat="42.55752" lon="2.25889">
        <ele>737</ele>
        <time>2016-07-06T09:24:06Z</time>
      </trkpt>
      <trkpt lat="42.55661" lon="2.25897">
        <ele>744</ele>
        <time>2016-07-06T09:24:37Z</time>
      </trkpt>
      <trkpt lat="42.55632" lon="2.2592">
        <ele>746</ele>
        <time>2016-07-06T09:24:46Z</time>
      </trkpt>
      <trkpt lat="42.55535" lon="2.25912">
        <ele>753</ele>
        <time>2016-07-06T09:25:15Z</time>
      </trkpt>
      <trkpt lat="42.55503" lon="2.25849">
        <ele>757</ele>
        <time>2016-07-06T09:25:31Z</time>
      </trkpt>
      <trkpt lat="42.55478" lon="2.25707">
        <ele>766</ele>
        <time>2016-07-06T09:26:02Z</time>
      </trkpt>
      <trkpt lat="42.5543" lon="2.25664">
        <ele>769</ele>
        <time>2016-07-06T09:26:17Z</time>
      </trkpt>
      <trkpt lat="42.55408" lon="2.25658">
        <ele>771</ele>
        <time>2016-07-06T09:26:24Z</time>
      </trkpt>
      <trkpt lat="42.55403" lon="2.25646">
        <ele>772</ele>
        <time>2016-07-06T09:26:27Z</time>
      </trkpt>
      <trkpt lat="42.55358" lon="2.25538">
        <ele>779</ele>
        <time>2016-07-06T09:26:53Z</time>
      </trkpt>
      <trkpt lat="42.55369" lon="2.25421">
        <ele>785</ele>
        <time>2016-07-06T09:27:17Z</time>
      </trkpt>
      <trkpt lat="42.55317" lon="2.25283">
        <ele>802</ele>
        <time>2016-07-06T09:27:48Z</time>
      </trkpt>
      <trkpt lat="42.55308" lon="2.2521">
        <ele>808</ele>
        <time>2016-07-06T09:28:03Z</time>
      </trkpt>
      <trkpt lat="42.55325" lon="2.25043">
        <ele>815</ele>
        <time>2016-07-06T09:28:33Z</time>
      </trkpt>
      <trkpt lat="42.55359" lon="2.24889">
        <ele>823</ele>
        <time>2016-07-06T09:29:04Z</time>
      </trkpt>
      <trkpt lat="42.55371" lon="2.24749">
        <ele>831</ele>
        <time>2016-07-06T09:29:34Z</time>
      </trkpt>
      <trkpt lat="42.55372" lon="2.24702">
        <ele>834</ele>
        <time>2016-07-06T09:29:44Z</time>
      </trkpt>
      <trkpt lat="42.55382" lon="2.24696">
        <ele>835</ele>
        <time>2016-07-06T09:29:47Z</time>
      </trkpt>
      <trkpt lat="42.55493" lon="2.24662">
        <ele>844</ele>
        <time>2016-07-06T09:30:17Z</time>
      </trkpt>
      <trkpt lat="42.55517" lon="2.24617">
        <ele>846</ele>
        <time>2016-07-06T09:30:28Z</time>
      </trkpt>
      <trkpt lat="42.55561" lon="2.24608">
        <ele>850</ele>
        <time>2016-07-06T09:30:39Z</time>
      </trkpt>
      <trkpt lat="42.55674" lon="2.24631">
        <ele>859</ele>
        <time>2016-07-06T09:31:10Z</time>
      </trkpt>
      <trkpt lat="42.5571" lon="2.24612">
        <ele>862</ele>
        <time>2016-07-06T09:31:21Z</time>
      </trkpt>
      <trkpt lat="42.55716" lon="2.24589">
        <ele>863</ele>
        <time>2016-07-06T09:31:25Z</time>
      </trkpt>
      <trkpt lat="42.55689" lon="2.24431">
        <ele>869</ele>
        <time>2016-07-06T09:31:56Z</time>
      </trkpt>
      <trkpt lat="42.55699" lon="2.24293">
        <ele>877</ele>
        <time>2016-07-06T09:32:26Z</time>
      </trkpt>
      <trkpt lat="42.55673" lon="2.24162">
        <ele>884</ele>
        <time>2016-07-06T09:32:56Z</time>
      </trkpt>
      <trkpt lat="42.55658" lon="2.24019">
        <ele>892</ele>
        <time>2016-07-06T09:33:26Z</time>
      </trkpt>
      <trkpt lat="42.55651" lon="2.23947">
        <ele>896</ele>
        <time>2016-07-06T09:33:42Z</time>
      </trkpt>
      <trkpt lat="42.55713" lon="2.23828">
        <ele>904</ele>
        <time>2016-07-06T09:34:13Z</time>
      </trkpt>
      <trkpt lat="42.55743" lon="2.23768">
        <ele>908</ele>
        <time>2016-07-06T09:34:28Z</time>
      </trkpt>
      <trkpt lat="42.55767" lon="2.23759">
        <ele>910</ele>
        <time>2016-07-06T09:34:35Z</time>
      </trkpt>
      <trkpt lat="42.55777" lon="2.23708">
        <ele>913</ele>
        <time>2016-07-06T09:34:45Z</time>
      </trkpt>
      <trkpt lat="42.55733" lon="2.23564">
        <ele>920</ele>
        <time>2016-07-06T09:35:15Z</time>
      </trkpt>
      <trkpt lat="42.55815" lon="2.23484">
        <ele>927</ele>
        <time>2016-07-06T09:35:41Z</time>
      </trkpt>
      <trkpt lat="42.55916" lon="2.23427">
        <ele>937</ele>
        <time>2016-07-06T09:36:11Z</time>
      </trkpt>
      <trkpt lat="42.55948" lon="2.23418">
        <ele>939</ele>
        <time>2016-07-06T09:36:21Z</time>
      </trkpt>
      <trkpt lat="42.55949" lon="2.23414">
        <ele>939</ele>
        <time>2016-07-06T09:36:22Z</time>
      </trkpt>
      <trkpt lat="42.55948" lon="2.23392">
        <ele>940</ele>
        <time>2016-07-06T09:36:26Z</time>
      </trkpt>
      <trkpt lat="42.5594" lon="2.23246">
        <ele>947</ele>
        <time>2016-07-06T09:36:56Z</time>
      </trkpt>
      <trkpt lat="42.55924" lon="2.23108">
        <ele>955</ele>
        <time>2016-07-06T09:37:26Z</time>
      </trkpt>
      <trkpt lat="42.5592" lon="2.23019">
        <ele>960</ele>
        <time>2016-07-06T09:37:45Z</time>
      </trkpt>
      <trkpt lat="42.55931" lon="2.23013">
        <ele>961</ele>
        <time>2016-07-06T09:37:48Z</time>
      </trkpt>
      <trkpt lat="42.55947" lon="2.23018">
        <ele>962</ele>
        <time>2016-07-06T09:37:52Z</time>
      </trkpt>
      <trkpt lat="42.56013" lon="2.23092">
        <ele>968</ele>
        <time>2016-07-06T09:38:16Z</time>
      </trkpt>
      <trkpt lat="42.56135" lon="2.23069">
        <ele>975</ele>
        <time>2016-07-06T09:38:47Z</time>
      </trkpt>
      <trkpt lat="42.56201" lon="2.23049">
        <ele>977</ele>
        <time>2016-07-06T09:39:02Z</time>
      </trkpt>
      <trkpt lat="42.56212" lon="2.23036">
        <ele>978</ele>
        <time>2016-07-06T09:39:06Z</time>
      </trkpt>
      <trkpt lat="42.56249" lon="2.23045">
        <ele>979</ele>
        <time>2016-07-06T09:39:15Z</time>
      </trkpt>
      <trkpt lat="42.56264" lon="2.23053">
        <ele>980</ele>
        <time>2016-07-06T09:39:19Z</time>
      </trkpt>
      <trkpt lat="42.56272" lon="2.2305">
        <ele>980</ele>
        <time>2016-07-06T09:39:21Z</time>
      </trkpt>
      <trkpt lat="42.56278" lon="2.23042">
        <ele>980</ele>
        <time>2016-07-06T09:39:23Z</time>
      </trkpt>
      <trkpt lat="42.56299" lon="2.22941">
        <ele>984</ele>
        <time>2016-07-06T09:39:41Z</time>
      </trkpt>
      <trkpt lat="42.56344" lon="2.22928">
        <ele>986</ele>
        <time>2016-07-06T09:39:52Z</time>
      </trkpt>
      <trkpt lat="42.56431" lon="2.22913">
        <ele>989</ele>
        <time>2016-07-06T09:40:12Z</time>
      </trkpt>
      <trkpt lat="42.56435" lon="2.22901">
        <ele>989</ele>
        <time>2016-07-06T09:40:14Z</time>
      </trkpt>
      <trkpt lat="42.56436" lon="2.22894">
        <ele>989</ele>
        <time>2016-07-06T09:40:15Z</time>
      </trkpt>
      <trkpt lat="42.56429" lon="2.22875">
        <ele>990</ele>
        <time>2016-07-06T09:40:18Z</time>
      </trkpt>
      <trkpt lat="42.56423" lon="2.22878">
        <ele>990</ele>
        <time>2016-07-06T09:40:19Z</time>
      </trkpt>
      <trkpt lat="42.56295" lon="2.22773">
        <ele>994</ele>
        <time>2016-07-06T09:40:50Z</time>
      </trkpt>
      <trkpt lat="42.56155" lon="2.22727">
        <ele>998</ele>
        <time>2016-07-06T09:41:20Z</time>
      </trkpt>
      <trkpt lat="42.5612" lon="2.22716">
        <ele>1000</ele>
        <time>2016-07-06T09:41:28Z</time>
      </trkpt>
      <trkpt lat="42.56107" lon="2.22677">
        <ele>1002</ele>
        <time>2016-07-06T09:41:35Z</time>
      </trkpt>
      <trkpt lat="42.56114" lon="2.22556">
        <ele>1007</ele>
        <time>2016-07-06T09:41:53Z</time>
      </trkpt>
      <trkpt lat="42.5612" lon="2.22543">
        <ele>1007</ele>
        <time>2016-07-06T09:41:55Z</time>
      </trkpt>
      <trkpt lat="42.56138" lon="2.2253">
        <ele>1008</ele>
        <time>2016-07-06T09:41:59Z</time>
      </trkpt>
      <trkpt lat="42.56139" lon="2.22522">
        <ele>1008</ele>
        <time>2016-07-06T09:42:00Z</time>
      </trkpt>
      <trkpt lat="42.56142" lon="2.22519">
        <ele>1008</ele>
        <time>2016-07-06T09:42:01Z</time>
      </trkpt>
      <trkpt lat="42.56141" lon="2.22512">
        <ele>1008</ele>
        <time>2016-07-06T09:42:02Z</time>
      </trkpt>
      <trkpt lat="42.561" lon="2.22428">
        <ele>1010</ele>
        <time>2016-07-06T09:42:14Z</time>
      </trkpt>
      <trkpt lat="42.56114" lon="2.22379">
        <ele>1012</ele>
        <time>2016-07-06T09:42:22Z</time>
      </trkpt>
      <trkpt lat="42.5611" lon="2.22368">
        <ele>1012</ele>
        <time>2016-07-06T09:42:24Z</time>
      </trkpt>
      <trkpt lat="42.56069" lon="2.2225">
        <ele>1016</ele>
        <time>2016-07-06T09:42:44Z</time>
      </trkpt>
      <trkpt lat="42.56082" lon="2.22198">
        <ele>1018</ele>
        <time>2016-07-06T09:42:52Z</time>
      </trkpt>
      <trkpt lat="42.56076" lon="2.22187">
        <ele>1018</ele>
        <time>2016-07-06T09:42:54Z</time>
      </trkpt>
      <trkpt lat="42.55978" lon="2.22094">
        <ele>1021</ele>
        <time>2016-07-06T09:43:17Z</time>
      </trkpt>
      <trkpt lat="42.55979" lon="2.22072">
        <ele>1022</ele>
        <time>2016-07-06T09:43:20Z</time>
      </trkpt>
      <trkpt lat="42.55994" lon="2.22037">
        <ele>1023</ele>
        <time>2016-07-06T09:43:26Z</time>
      </trkpt>
      <trkpt lat="42.5598" lon="2.21942">
        <ele>1026</ele>
        <time>2016-07-06T09:43:40Z</time>
      </trkpt>
      <trkpt lat="42.55998" lon="2.21918">
        <ele>1026</ele>
        <time>2016-07-06T09:43:45Z</time>
      </trkpt>
      <trkpt lat="42.5612" lon="2.21815">
        <ele>1031</ele>
        <time>2016-07-06T09:44:15Z</time>
      </trkpt>
      <trkpt lat="42.56199" lon="2.21803">
        <ele>1032</ele>
        <time>2016-07-06T09:44:30Z</time>
      </trkpt>
      <trkpt lat="42.56285" lon="2.21731">
        <ele>1034</ele>
        <time>2016-07-06T09:44:51Z</time>
      </trkpt>
      <trkpt lat="42.56275" lon="2.21717">
        <ele>1034</ele>
        <time>2016-07-06T09:44:52Z</time>
      </trkpt>
      <trkpt lat="42.56196" lon="2.21581">
        <ele>1037</ele>
        <time>2016-07-06T09:45:16Z</time>
      </trkpt>
      <trkpt lat="42.56199" lon="2.21576">
        <ele>1037</ele>
        <time>2016-07-06T09:45:17Z</time>
      </trkpt>
      <trkpt lat="42.56215" lon="2.21559">
        <ele>1037</ele>
        <time>2016-07-06T09:45:21Z</time>
      </trkpt>
      <trkpt lat="42.56313" lon="2.2142">
        <ele>1041</ele>
        <time>2016-07-06T09:45:47Z</time>
      </trkpt>
      <trkpt lat="42.56312" lon="2.21415">
        <ele>1041</ele>
        <time>2016-07-06T09:45:48Z</time>
      </trkpt>
      <trkpt lat="42.56298" lon="2.21208">
        <ele>1045</ele>
        <time>2016-07-06T09:46:19Z</time>
      </trkpt>
      <trkpt lat="42.56297" lon="2.21189">
        <ele>1046</ele>
        <time>2016-07-06T09:46:22Z</time>
      </trkpt>
      <trkpt lat="42.56328" lon="2.2099">
        <ele>1051</ele>
        <time>2016-07-06T09:46:52Z</time>
      </trkpt>
      <trkpt lat="42.56331" lon="2.20977">
        <ele>1051</ele>
        <time>2016-07-06T09:46:54Z</time>
      </trkpt>
      <trkpt lat="42.56352" lon="2.20946">
        <ele>1052</ele>
        <time>2016-07-06T09:47:00Z</time>
      </trkpt>
      <trkpt lat="42.56352" lon="2.20908">
        <ele>1052</ele>
        <time>2016-07-06T09:47:05Z</time>
      </trkpt>
      <trkpt lat="42.56369" lon="2.20753">
        <ele>1057</ele>
        <time>2016-07-06T09:47:25Z</time>
      </trkpt>
      <trkpt lat="42.56386" lon="2.20742">
        <ele>1059</ele>
        <time>2016-07-06T09:47:28Z</time>
      </trkpt>
      <trkpt lat="42.56396" lon="2.20747">
        <ele>1060</ele>
        <time>2016-07-06T09:47:30Z</time>
      </trkpt>
      <trkpt lat="42.56423" lon="2.20806">
        <ele>1065</ele>
        <time>2016-07-06T09:47:40Z</time>
      </trkpt>
      <trkpt lat="42.56484" lon="2.20926">
        <ele>1068</ele>
        <time>2016-07-06T09:48:05Z</time>
      </trkpt>
      <trkpt lat="42.56537" lon="2.20924">
        <ele>1071</ele>
        <time>2016-07-06T09:48:15Z</time>
      </trkpt>
      <trkpt lat="42.56542" lon="2.20913">
        <ele>1071</ele>
        <time>2016-07-06T09:48:17Z</time>
      </trkpt>
      <trkpt lat="42.56572" lon="2.20712">
        <ele>1076</ele>
        <time>2016-07-06T09:48:47Z</time>
      </trkpt>
      <trkpt lat="42.5658" lon="2.20704">
        <ele>1076</ele>
        <time>2016-07-06T09:48:49Z</time>
      </trkpt>
      <trkpt lat="42.56611" lon="2.20706">
        <ele>1078</ele>
        <time>2016-07-06T09:48:55Z</time>
      </trkpt>
      <trkpt lat="42.56735" lon="2.20688">
        <ele>1082</ele>
        <time>2016-07-06T09:49:26Z</time>
      </trkpt>
      <trkpt lat="42.56779" lon="2.20669">
        <ele>1084</ele>
        <time>2016-07-06T09:49:35Z</time>
      </trkpt>
      <trkpt lat="42.56803" lon="2.20629">
        <ele>1085</ele>
        <time>2016-07-06T09:49:42Z</time>
      </trkpt>
      <trkpt lat="42.5691" lon="2.20628">
        <ele>1088</ele>
        <time>2016-07-06T09:50:02Z</time>
      </trkpt>
      <trkpt lat="42.56912" lon="2.20616">
        <ele>1089</ele>
        <time>2016-07-06T09:50:04Z</time>
      </trkpt>
      <trkpt lat="42.5702" lon="2.20471">
        <ele>1093</ele>
        <time>2016-07-06T09:50:34Z</time>
      </trkpt>
      <trkpt lat="42.57051" lon="2.20459">
        <ele>1094</ele>
        <time>2016-07-06T09:50:41Z</time>
      </trkpt>
      <trkpt lat="42.57074" lon="2.20483">
        <ele>1095</ele>
        <time>2016-07-06T09:50:47Z</time>
      </trkpt>
      <trkpt lat="42.5709" lon="2.20511">
        <ele>1096</ele>
        <time>2016-07-06T09:50:52Z</time>
      </trkpt>
      <trkpt lat="42.57094" lon="2.20513">
        <ele>1096</ele>
        <time>2016-07-06T09:50:53Z</time>
      </trkpt>
      <trkpt lat="42.57127" lon="2.20503">
        <ele>1097</ele>
        <time>2016-07-06T09:50:59Z</time>
      </trkpt>
      <trkpt lat="42.57164" lon="2.20472">
        <ele>1098</ele>
        <time>2016-07-06T09:51:07Z</time>
      </trkpt>
      <trkpt lat="42.57191" lon="2.20418">
        <ele>1100</ele>
        <time>2016-07-06T09:51:18Z</time>
      </trkpt>
      <trkpt lat="42.57223" lon="2.2041">
        <ele>1101</ele>
        <time>2016-07-06T09:51:24Z</time>
      </trkpt>
      <trkpt lat="42.57332" lon="2.20435">
        <ele>1103</ele>
        <time>2016-07-06T09:51:44Z</time>
      </trkpt>
      <trkpt lat="42.57336" lon="2.20428">
        <ele>1103</ele>
        <time>2016-07-06T09:51:45Z</time>
      </trkpt>
      <trkpt lat="42.57349" lon="2.2036">
        <ele>1105</ele>
        <time>2016-07-06T09:51:55Z</time>
      </trkpt>
      <trkpt lat="42.57353" lon="2.20357">
        <ele>1105</ele>
        <time>2016-07-06T09:51:56Z</time>
      </trkpt>
      <trkpt lat="42.57383" lon="2.20362">
        <ele>1106</ele>
        <time>2016-07-06T09:52:01Z</time>
      </trkpt>
      <trkpt lat="42.57401" lon="2.20366">
        <ele>1107</ele>
        <time>2016-07-06T09:52:04Z</time>
      </trkpt>
      <trkpt lat="42.5741" lon="2.20358">
        <ele>1107</ele>
        <time>2016-07-06T09:52:06Z</time>
      </trkpt>
      <trkpt lat="42.57414" lon="2.20338">
        <ele>1108</ele>
        <time>2016-07-06T09:52:09Z</time>
      </trkpt>
      <trkpt lat="42.57417" lon="2.20316">
        <ele>1108</ele>
        <time>2016-07-06T09:52:12Z</time>
      </trkpt>
      <trkpt lat="42.57493" lon="2.20234">
        <ele>1111</ele>
        <time>2016-07-06T09:52:29Z</time>
      </trkpt>
      <trkpt lat="42.5767" lon="2.2022">
        <ele>1115</ele>
        <time>2016-07-06T09:53:00Z</time>
      </trkpt>
      <trkpt lat="42.57721" lon="2.2024">
        <ele>1115</ele>
        <time>2016-07-06T09:53:10Z</time>
      </trkpt>
      <trkpt lat="42.57726" lon="2.20252">
        <ele>1116</ele>
        <time>2016-07-06T09:53:12Z</time>
      </trkpt>
      <trkpt lat="42.57812" lon="2.20388">
        <ele>1118</ele>
        <time>2016-07-06T09:53:35Z</time>
      </trkpt>
      <trkpt lat="42.57818" lon="2.2039">
        <ele>1118</ele>
        <time>2016-07-06T09:53:36Z</time>
      </trkpt>
      <trkpt lat="42.57829" lon="2.20387">
        <ele>1118</ele>
        <time>2016-07-06T09:53:38Z</time>
      </trkpt>
      <trkpt lat="42.57833" lon="2.20381">
        <ele>1118</ele>
        <time>2016-07-06T09:53:39Z</time>
      </trkpt>
      <trkpt lat="42.57833" lon="2.20376">
        <ele>1118</ele>
        <time>2016-07-06T09:53:40Z</time>
      </trkpt>
      <trkpt lat="42.57831" lon="2.20144">
        <ele>1123</ele>
        <time>2016-07-06T09:54:10Z</time>
      </trkpt>
      <trkpt lat="42.57822" lon="2.20088">
        <ele>1124</ele>
        <time>2016-07-06T09:54:18Z</time>
      </trkpt>
      <trkpt lat="42.57828" lon="2.20075">
        <ele>1124</ele>
        <time>2016-07-06T09:54:20Z</time>
      </trkpt>
      <trkpt lat="42.57955" lon="2.19895">
        <ele>1128</ele>
        <time>2016-07-06T09:54:51Z</time>
      </trkpt>
      <trkpt lat="42.57962" lon="2.19885">
        <ele>1128</ele>
        <time>2016-07-06T09:54:53Z</time>
      </trkpt>
      <trkpt lat="42.57969" lon="2.19885">
        <ele>1128</ele>
        <time>2016-07-06T09:54:54Z</time>
      </trkpt>
      <trkpt lat="42.58142" lon="2.19859">
        <ele>1129</ele>
        <time>2016-07-06T09:55:24Z</time>
      </trkpt>
      <trkpt lat="42.5822" lon="2.19862">
        <ele>1129</ele>
        <time>2016-07-06T09:55:38Z</time>
      </trkpt>
      <trkpt lat="42.58225" lon="2.19848">
        <ele>1129</ele>
        <time>2016-07-06T09:55:40Z</time>
      </trkpt>
      <trkpt lat="42.58225" lon="2.19834">
        <ele>1129</ele>
        <time>2016-07-06T09:55:42Z</time>
      </trkpt>
      <trkpt lat="42.58185" lon="2.19741">
        <ele>1130</ele>
        <time>2016-07-06T09:55:55Z</time>
      </trkpt>
      <trkpt lat="42.58153" lon="2.19691">
        <ele>1131</ele>
        <time>2016-07-06T09:56:04Z</time>
      </trkpt>
      <trkpt lat="42.58156" lon="2.19678">
        <ele>1131</ele>
        <time>2016-07-06T09:56:06Z</time>
      </trkpt>
      <trkpt lat="42.58205" lon="2.1961">
        <ele>1132</ele>
        <time>2016-07-06T09:56:18Z</time>
      </trkpt>
      <trkpt lat="42.58246" lon="2.19589">
        <ele>1133</ele>
        <time>2016-07-06T09:56:26Z</time>
      </trkpt>
      <trkpt lat="42.58263" lon="2.19568">
        <ele>1133</ele>
        <time>2016-07-06T09:56:30Z</time>
      </trkpt>
      <trkpt lat="42.58319" lon="2.19543">
        <ele>1134</ele>
        <time>2016-07-06T09:56:40Z</time>
      </trkpt>
      <trkpt lat="42.58353" lon="2.19566">
        <ele>1135</ele>
        <time>2016-07-06T09:56:47Z</time>
      </trkpt>
      <trkpt lat="42.58382" lon="2.19655">
        <ele>1136</ele>
        <time>2016-07-06T09:57:02Z</time>
      </trkpt>
      <trkpt lat="42.58391" lon="2.19645">
        <ele>1136</ele>
        <time>2016-07-06T09:57:04Z</time>
      </trkpt>
      <trkpt lat="42.58404" lon="2.19558">
        <ele>1137</ele>
        <time>2016-07-06T09:57:18Z</time>
      </trkpt>
      <trkpt lat="42.58409" lon="2.19476">
        <ele>1138</ele>
        <time>2016-07-06T09:57:30Z</time>
      </trkpt>
      <trkpt lat="42.58417" lon="2.19466">
        <ele>1138</ele>
        <time>2016-07-06T09:57:32Z</time>
      </trkpt>
      <trkpt lat="42.58484" lon="2.19414">
        <ele>1139</ele>
        <time>2016-07-06T09:57:45Z</time>
      </trkpt>
      <trkpt lat="42.5851" lon="2.19301">
        <ele>1140</ele>
        <time>2016-07-06T09:58:00Z</time>
      </trkpt>
      <trkpt lat="42.58504" lon="2.19249">
        <ele>1143</ele>
        <time>2016-07-06T09:58:08Z</time>
      </trkpt>
      <trkpt lat="42.58518" lon="2.19231">
        <ele>1145</ele>
        <time>2016-07-06T09:58:12Z</time>
      </trkpt>
      <trkpt lat="42.5859" lon="2.19134">
        <ele>1152</ele>
        <time>2016-07-06T09:58:33Z</time>
      </trkpt>
      <trkpt lat="42.58593" lon="2.18978">
        <ele>1161</ele>
        <time>2016-07-06T09:58:59Z</time>
      </trkpt>
      <trkpt lat="42.58601" lon="2.18975">
        <ele>1161</ele>
        <time>2016-07-06T09:59:01Z</time>
      </trkpt>
      <trkpt lat="42.58605" lon="2.18976">
        <ele>1162</ele>
        <time>2016-07-06T09:59:02Z</time>
      </trkpt>
      <trkpt lat="42.5861" lon="2.18984">
        <ele>1162</ele>
        <time>2016-07-06T09:59:04Z</time>
      </trkpt>
      <trkpt lat="42.58613" lon="2.18986">
        <ele>1163</ele>
        <time>2016-07-06T09:59:05Z</time>
      </trkpt>
      <trkpt lat="42.58687" lon="2.18995">
        <ele>1167</ele>
        <time>2016-07-06T09:59:22Z</time>
      </trkpt>
      <trkpt lat="42.58789" lon="2.18885">
        <ele>1177</ele>
        <time>2016-07-06T09:59:53Z</time>
      </trkpt>
      <trkpt lat="42.58826" lon="2.18861">
        <ele>1179</ele>
        <time>2016-07-06T10:00:03Z</time>
      </trkpt>
      <trkpt lat="42.58834" lon="2.18865">
        <ele>1180</ele>
        <time>2016-07-06T10:00:05Z</time>
      </trkpt>
      <trkpt lat="42.58881" lon="2.18962">
        <ele>1187</ele>
        <time>2016-07-06T10:00:27Z</time>
      </trkpt>
      <trkpt lat="42.58898" lon="2.19042">
        <ele>1192</ele>
        <time>2016-07-06T10:00:42Z</time>
      </trkpt>
      <trkpt lat="42.58921" lon="2.19055">
        <ele>1193</ele>
        <time>2016-07-06T10:00:48Z</time>
      </trkpt>
      <trkpt lat="42.58988" lon="2.19029">
        <ele>1198</ele>
        <time>2016-07-06T10:01:04Z</time>
      </trkpt>
      <trkpt lat="42.591" lon="2.18965">
        <ele>1205</ele>
        <time>2016-07-06T10:01:34Z</time>
      </trkpt>
      <trkpt lat="42.59132" lon="2.18957">
        <ele>1207</ele>
        <time>2016-07-06T10:01:42Z</time>
      </trkpt>
      <trkpt lat="42.59208" lon="2.18835">
        <ele>1215</ele>
        <time>2016-07-06T10:02:09Z</time>
      </trkpt>
      <trkpt lat="42.592" lon="2.18749">
        <ele>1219</ele>
        <time>2016-07-06T10:02:23Z</time>
      </trkpt>
      <trkpt lat="42.59187" lon="2.187">
        <ele>1221</ele>
        <time>2016-07-06T10:02:32Z</time>
      </trkpt>
      <trkpt lat="42.59192" lon="2.1869">
        <ele>1222</ele>
        <time>2016-07-06T10:02:34Z</time>
      </trkpt>
      <trkpt lat="42.59201" lon="2.18684">
        <ele>1223</ele>
        <time>2016-07-06T10:02:36Z</time>
      </trkpt>
      <trkpt lat="42.59337" lon="2.18652">
        <ele>1229</ele>
        <time>2016-07-06T10:03:07Z</time>
      </trkpt>
      <trkpt lat="42.59402" lon="2.1864">
        <ele>1231</ele>
        <time>2016-07-06T10:03:23Z</time>
      </trkpt>
      <trkpt lat="42.59409" lon="2.1863">
        <ele>1231</ele>
        <time>2016-07-06T10:03:25Z</time>
      </trkpt>
      <trkpt lat="42.59408" lon="2.18618">
        <ele>1232</ele>
        <time>2016-07-06T10:03:27Z</time>
      </trkpt>
      <trkpt lat="42.59401" lon="2.18609">
        <ele>1232</ele>
        <time>2016-07-06T10:03:29Z</time>
      </trkpt>
      <trkpt lat="42.5928" lon="2.18591">
        <ele>1238</ele>
        <time>2016-07-06T10:03:59Z</time>
      </trkpt>
      <trkpt lat="42.59235" lon="2.18521">
        <ele>1244</ele>
        <time>2016-07-06T10:04:17Z</time>
      </trkpt>
      <trkpt lat="42.59233" lon="2.18512">
        <ele>1244</ele>
        <time>2016-07-06T10:04:19Z</time>
      </trkpt>
      <trkpt lat="42.59234" lon="2.18507">
        <ele>1244</ele>
        <time>2016-07-06T10:04:20Z</time>
      </trkpt>
      <trkpt lat="42.59268" lon="2.18481">
        <ele>1246</ele>
        <time>2016-07-06T10:04:28Z</time>
      </trkpt>
      <trkpt lat="42.59315" lon="2.18446">
        <ele>1250</ele>
        <time>2016-07-06T10:04:43Z</time>
      </trkpt>
      <trkpt lat="42.59318" lon="2.18372">
        <ele>1253</ele>
        <time>2016-07-06T10:04:57Z</time>
      </trkpt>
      <trkpt lat="42.5931" lon="2.18338">
        <ele>1255</ele>
        <time>2016-07-06T10:05:04Z</time>
      </trkpt>
      <trkpt lat="42.59315" lon="2.1833">
        <ele>1255</ele>
        <time>2016-07-06T10:05:06Z</time>
      </trkpt>
      <trkpt lat="42.59328" lon="2.18326">
        <ele>1256</ele>
        <time>2016-07-06T10:05:10Z</time>
      </trkpt>
      <trkpt lat="42.59442" lon="2.18276">
        <ele>1264</ele>
        <time>2016-07-06T10:05:41Z</time>
      </trkpt>
      <trkpt lat="42.59459" lon="2.18264">
        <ele>1265</ele>
        <time>2016-07-06T10:05:46Z</time>
      </trkpt>
      <trkpt lat="42.59463" lon="2.18255">
        <ele>1266</ele>
        <time>2016-07-06T10:05:48Z</time>
      </trkpt>
      <trkpt lat="42.59562" lon="2.18192">
        <ele>1273</ele>
        <time>2016-07-06T10:06:19Z</time>
      </trkpt>
      <trkpt lat="42.59621" lon="2.18047">
        <ele>1277</ele>
        <time>2016-07-06T10:06:50Z</time>
      </trkpt>
      <trkpt lat="42.59627" lon="2.18017">
        <ele>1277</ele>
        <time>2016-07-06T10:06:54Z</time>
      </trkpt>
      <trkpt lat="42.59611" lon="2.17985">
        <ele>1277</ele>
        <time>2016-07-06T10:06:58Z</time>
      </trkpt>
      <trkpt lat="42.59584" lon="2.17972">
        <ele>1277</ele>
        <time>2016-07-06T10:07:03Z</time>
      </trkpt>
      <trkpt lat="42.5955" lon="2.17999">
        <ele>1278</ele>
        <time>2016-07-06T10:07:09Z</time>
      </trkpt>
      <trkpt lat="42.59415" lon="2.18108">
        <ele>1287</ele>
        <time>2016-07-06T10:07:40Z</time>
      </trkpt>
      <trkpt lat="42.59292" lon="2.18198">
        <ele>1295</ele>
        <time>2016-07-06T10:08:10Z</time>
      </trkpt>
      <trkpt lat="42.59213" lon="2.18264">
        <ele>1302</ele>
        <time>2016-07-06T10:08:31Z</time>
      </trkpt>
      <trkpt lat="42.59211" lon="2.18285">
        <ele>1302</ele>
        <time>2016-07-06T10:08:35Z</time>
      </trkpt>
      <trkpt lat="42.59208" lon="2.18289">
        <ele>1303</ele>
        <time>2016-07-06T10:08:36Z</time>
      </trkpt>
      <trkpt lat="42.59207" lon="2.18294">
        <ele>1303</ele>
        <time>2016-07-06T10:08:37Z</time>
      </trkpt>
      <trkpt lat="42.59187" lon="2.1832">
        <ele>1304</ele>
        <time>2016-07-06T10:08:43Z</time>
      </trkpt>
      <trkpt lat="42.59187" lon="2.18325">
        <ele>1305</ele>
        <time>2016-07-06T10:08:44Z</time>
      </trkpt>
      <trkpt lat="42.59095" lon="2.18457">
        <ele>1313</ele>
        <time>2016-07-06T10:09:14Z</time>
      </trkpt>
      <trkpt lat="42.59084" lon="2.18464">
        <ele>1314</ele>
        <time>2016-07-06T10:09:17Z</time>
      </trkpt>
      <trkpt lat="42.5904" lon="2.18509">
        <ele>1317</ele>
        <time>2016-07-06T10:09:30Z</time>
      </trkpt>
      <trkpt lat="42.59032" lon="2.18522">
        <ele>1318</ele>
        <time>2016-07-06T10:09:33Z</time>
      </trkpt>
      <trkpt lat="42.59" lon="2.18545">
        <ele>1320</ele>
        <time>2016-07-06T10:09:42Z</time>
      </trkpt>
      <trkpt lat="42.58988" lon="2.18575">
        <ele>1321</ele>
        <time>2016-07-06T10:09:48Z</time>
      </trkpt>
      <trkpt lat="42.58978" lon="2.1858">
        <ele>1321</ele>
        <time>2016-07-06T10:09:50Z</time>
      </trkpt>
      <trkpt lat="42.58965" lon="2.18574">
        <ele>1321</ele>
        <time>2016-07-06T10:09:53Z</time>
      </trkpt>
      <trkpt lat="42.58854" lon="2.1844">
        <ele>1328</ele>
        <time>2016-07-06T10:10:24Z</time>
      </trkpt>
      <trkpt lat="42.58795" lon="2.18283">
        <ele>1333</ele>
        <time>2016-07-06T10:10:55Z</time>
      </trkpt>
      <trkpt lat="42.58673" lon="2.18274">
        <ele>1338</ele>
        <time>2016-07-06T10:11:25Z</time>
      </trkpt>
      <trkpt lat="42.58601" lon="2.18188">
        <ele>1341</ele>
        <time>2016-07-06T10:11:47Z</time>
      </trkpt>
      <trkpt lat="42.58594" lon="2.18172">
        <ele>1341</ele>
        <time>2016-07-06T10:11:51Z</time>
      </trkpt>
      <trkpt lat="42.5859" lon="2.18169">
        <ele>1342</ele>
        <time>2016-07-06T10:12:15Z</time>
      </trkpt>
      <trkpt lat="42.58582" lon="2.18148">
        <ele>1343</ele>
        <time>2016-07-06T10:12:22Z</time>
      </trkpt>
      <trkpt lat="42.5854" lon="2.18129">
        <ele>1346</ele>
        <time>2016-07-06T10:12:33Z</time>
      </trkpt>
      <trkpt lat="42.58537" lon="2.18118">
        <ele>1347</ele>
        <time>2016-07-06T10:12:35Z</time>
      </trkpt>
      <trkpt lat="42.58538" lon="2.18109">
        <ele>1347</ele>
        <time>2016-07-06T10:12:36Z</time>
      </trkpt>
      <trkpt lat="42.58506" lon="2.18007">
        <ele>1354</ele>
        <time>2016-07-06T10:13:03Z</time>
      </trkpt>
      <trkpt lat="42.58494" lon="2.17946">
        <ele>1357</ele>
        <time>2016-07-06T10:13:23Z</time>
      </trkpt>
      <trkpt lat="42.58485" lon="2.17933">
        <ele>1359</ele>
        <time>2016-07-06T10:13:34Z</time>
      </trkpt>
      <trkpt lat="42.58484" lon="2.17935">
        <ele>1359</ele>
        <time>2016-07-06T10:15:00Z</time>
      </trkpt>
      <trkpt lat="42.58481" lon="2.17929">
        <ele>1359</ele>
        <time>2016-07-06T10:15:23Z</time>
      </trkpt>
      <trkpt lat="42.58484" lon="2.17927">
        <ele>1358</ele>
        <time>2016-07-06T10:16:54Z</time>
      </trkpt>
      <trkpt lat="42.58481" lon="2.17925">
        <ele>1358</ele>
        <time>2016-07-06T10:18:21Z</time>
      </trkpt>
      <trkpt lat="42.58477" lon="2.17925">
        <ele>1358</ele>
        <time>2016-07-06T10:18:27Z</time>
      </trkpt>
      <trkpt lat="42.58479" lon="2.17926">
        <ele>1358</ele>
        <time>2016-07-06T10:19:09Z</time>
      </trkpt>
      <trkpt lat="42.58483" lon="2.17927">
        <ele>1359</ele>
        <time>2016-07-06T10:20:16Z</time>
      </trkpt>
      <trkpt lat="42.58487" lon="2.17924">
        <ele>1362</ele>
        <time>2016-07-06T10:22:37Z</time>
      </trkpt>
      <trkpt lat="42.58493" lon="2.17922">
        <ele>1363</ele>
        <time>2016-07-06T10:22:40Z</time>
      </trkpt>
      <trkpt lat="42.58496" lon="2.17923">
        <ele>1363</ele>
        <time>2016-07-06T10:22:41Z</time>
      </trkpt>
      <trkpt lat="42.58499" lon="2.17927">
        <ele>1364</ele>
        <time>2016-07-06T10:22:43Z</time>
      </trkpt>
      <trkpt lat="42.58537" lon="2.18052">
        <ele>1369</ele>
        <time>2016-07-06T10:23:13Z</time>
      </trkpt>
      <trkpt lat="42.58602" lon="2.18099">
        <ele>1372</ele>
        <time>2016-07-06T10:23:34Z</time>
      </trkpt>
      <trkpt lat="42.58721" lon="2.1808">
        <ele>1377</ele>
        <time>2016-07-06T10:24:05Z</time>
      </trkpt>
      <trkpt lat="42.58837" lon="2.18077">
        <ele>1383</ele>
        <time>2016-07-06T10:24:36Z</time>
      </trkpt>
      <trkpt lat="42.58843" lon="2.1807">
        <ele>1383</ele>
        <time>2016-07-06T10:24:38Z</time>
      </trkpt>
      <trkpt lat="42.58844" lon="2.18066">
        <ele>1383</ele>
        <time>2016-07-06T10:24:39Z</time>
      </trkpt>
      <trkpt lat="42.58844" lon="2.18062">
        <ele>1383</ele>
        <time>2016-07-06T10:24:40Z</time>
      </trkpt>
      <trkpt lat="42.58842" lon="2.18059">
        <ele>1384</ele>
        <time>2016-07-06T10:24:41Z</time>
      </trkpt>
      <trkpt lat="42.58836" lon="2.18053">
        <ele>1384</ele>
        <time>2016-07-06T10:24:43Z</time>
      </trkpt>
      <trkpt lat="42.58817" lon="2.18051">
        <ele>1385</ele>
        <time>2016-07-06T10:24:47Z</time>
      </trkpt>
      <trkpt lat="42.58696" lon="2.18034">
        <ele>1392</ele>
        <time>2016-07-06T10:25:18Z</time>
      </trkpt>
      <trkpt lat="42.58597" lon="2.18002">
        <ele>1396</ele>
        <time>2016-07-06T10:25:43Z</time>
      </trkpt>
      <trkpt lat="42.58593" lon="2.17992">
        <ele>1396</ele>
        <time>2016-07-06T10:25:45Z</time>
      </trkpt>
      <trkpt lat="42.58594" lon="2.17831">
        <ele>1404</ele>
        <time>2016-07-06T10:26:16Z</time>
      </trkpt>
      <trkpt lat="42.58578" lon="2.17673">
        <ele>1411</ele>
        <time>2016-07-06T10:26:46Z</time>
      </trkpt>
      <trkpt lat="42.58583" lon="2.1757">
        <ele>1415</ele>
        <time>2016-07-06T10:27:05Z</time>
      </trkpt>
      <trkpt lat="42.58655" lon="2.17437">
        <ele>1420</ele>
        <time>2016-07-06T10:27:36Z</time>
      </trkpt>
      <trkpt lat="42.58778" lon="2.17356">
        <ele>1428</ele>
        <time>2016-07-06T10:28:06Z</time>
      </trkpt>
      <trkpt lat="42.58781" lon="2.17349">
        <ele>1428</ele>
        <time>2016-07-06T10:28:08Z</time>
      </trkpt>
      <trkpt lat="42.58895" lon="2.17221">
        <ele>1434</ele>
        <time>2016-07-06T10:28:39Z</time>
      </trkpt>
      <trkpt lat="42.58898" lon="2.17202">
        <ele>1434</ele>
        <time>2016-07-06T10:28:43Z</time>
      </trkpt>
      <trkpt lat="42.58892" lon="2.17193">
        <ele>1435</ele>
        <time>2016-07-06T10:28:45Z</time>
      </trkpt>
      <trkpt lat="42.58888" lon="2.17189">
        <ele>1435</ele>
        <time>2016-07-06T10:28:46Z</time>
      </trkpt>
      <trkpt lat="42.58773" lon="2.17142">
        <ele>1443</ele>
        <time>2016-07-06T10:29:16Z</time>
      </trkpt>
      <trkpt lat="42.58715" lon="2.17178">
        <ele>1448</ele>
        <time>2016-07-06T10:29:31Z</time>
      </trkpt>
      <trkpt lat="42.58675" lon="2.17224">
        <ele>1453</ele>
        <time>2016-07-06T10:29:45Z</time>
      </trkpt>
      <trkpt lat="42.58552" lon="2.17214">
        <ele>1465</ele>
        <time>2016-07-06T10:30:15Z</time>
      </trkpt>
      <trkpt lat="42.58429" lon="2.17243">
        <ele>1473</ele>
        <time>2016-07-06T10:30:45Z</time>
      </trkpt>
      <trkpt lat="42.58394" lon="2.17309">
        <ele>1478</ele>
        <time>2016-07-06T10:31:01Z</time>
      </trkpt>
      <trkpt lat="42.58332" lon="2.17459">
        <ele>1485</ele>
        <time>2016-07-06T10:31:32Z</time>
      </trkpt>
      <trkpt lat="42.5828" lon="2.17607">
        <ele>1496</ele>
        <time>2016-07-06T10:32:03Z</time>
      </trkpt>
      <trkpt lat="42.58277" lon="2.17612">
        <ele>1496</ele>
        <time>2016-07-06T10:32:04Z</time>
      </trkpt>
      <trkpt lat="42.58278" lon="2.17617">
        <ele>1496</ele>
        <time>2016-07-06T10:32:05Z</time>
      </trkpt>
      <trkpt lat="42.58276" lon="2.17622">
        <ele>1496</ele>
        <time>2016-07-06T10:32:06Z</time>
      </trkpt>
      <trkpt lat="42.58265" lon="2.17639">
        <ele>1498</ele>
        <time>2016-07-06T10:32:10Z</time>
      </trkpt>
      <trkpt lat="42.58265" lon="2.17643">
        <ele>1498</ele>
        <time>2016-07-06T10:32:11Z</time>
      </trkpt>
      <trkpt lat="42.58264" lon="2.17647">
        <ele>1498</ele>
        <time>2016-07-06T10:32:12Z</time>
      </trkpt>
      <trkpt lat="42.58201" lon="2.17773">
        <ele>1507</ele>
        <time>2016-07-06T10:32:43Z</time>
      </trkpt>
      <trkpt lat="42.58143" lon="2.17849">
        <ele>1513</ele>
        <time>2016-07-06T10:33:06Z</time>
      </trkpt>
      <trkpt lat="42.58129" lon="2.17853">
        <ele>1514</ele>
        <time>2016-07-06T10:33:11Z</time>
      </trkpt>
      <trkpt lat="42.58122" lon="2.17854">
        <ele>1516</ele>
        <time>2016-07-06T10:34:21Z</time>
      </trkpt>
      <trkpt lat="42.58076" lon="2.17835">
        <ele>1518</ele>
        <time>2016-07-06T10:34:32Z</time>
      </trkpt>
      <trkpt lat="42.58075" lon="2.17829">
        <ele>1518</ele>
        <time>2016-07-06T10:34:33Z</time>
      </trkpt>
      <trkpt lat="42.58048" lon="2.17828">
        <ele>1520</ele>
        <time>2016-07-06T10:34:38Z</time>
      </trkpt>
      <trkpt lat="42.58041" lon="2.17819">
        <ele>1521</ele>
        <time>2016-07-06T10:34:40Z</time>
      </trkpt>
      <trkpt lat="42.5804" lon="2.17813">
        <ele>1521</ele>
        <time>2016-07-06T10:34:41Z</time>
      </trkpt>
      <trkpt lat="42.58005" lon="2.17638">
        <ele>1531</ele>
        <time>2016-07-06T10:35:08Z</time>
      </trkpt>
      <trkpt lat="42.57941" lon="2.17626">
        <ele>1535</ele>
        <time>2016-07-06T10:35:19Z</time>
      </trkpt>
      <trkpt lat="42.57918" lon="2.17588">
        <ele>1538</ele>
        <time>2016-07-06T10:35:26Z</time>
      </trkpt>
      <trkpt lat="42.57864" lon="2.17573">
        <ele>1542</ele>
        <time>2016-07-06T10:35:37Z</time>
      </trkpt>
      <trkpt lat="42.57858" lon="2.17552">
        <ele>1544</ele>
        <time>2016-07-06T10:35:41Z</time>
      </trkpt>
      <trkpt lat="42.57859" lon="2.17478">
        <ele>1550</ele>
        <time>2016-07-06T10:35:55Z</time>
      </trkpt>
      <trkpt lat="42.57866" lon="2.17473">
        <ele>1550</ele>
        <time>2016-07-06T10:35:56Z</time>
      </trkpt>
      <trkpt lat="42.57884" lon="2.17439">
        <ele>1553</ele>
        <time>2016-07-06T10:36:03Z</time>
      </trkpt>
      <trkpt lat="42.57883" lon="2.17428">
        <ele>1554</ele>
        <time>2016-07-06T10:36:05Z</time>
      </trkpt>
      <trkpt lat="42.57872" lon="2.17409">
        <ele>1555</ele>
        <time>2016-07-06T10:36:09Z</time>
      </trkpt>
      <trkpt lat="42.57769" lon="2.17354">
        <ele>1562</ele>
        <time>2016-07-06T10:36:38Z</time>
      </trkpt>
      <trkpt lat="42.57742" lon="2.17371">
        <ele>1564</ele>
        <time>2016-07-06T10:36:44Z</time>
      </trkpt>
      <trkpt lat="42.57716" lon="2.1741">
        <ele>1566</ele>
        <time>2016-07-06T10:36:51Z</time>
      </trkpt>
      <trkpt lat="42.57714" lon="2.17414">
        <ele>1566</ele>
        <time>2016-07-06T10:36:53Z</time>
      </trkpt>
      <trkpt lat="42.57651" lon="2.17458">
        <ele>1572</ele>
        <time>2016-07-06T10:37:12Z</time>
      </trkpt>
      <trkpt lat="42.57541" lon="2.17466">
        <ele>1580</ele>
        <time>2016-07-06T10:37:43Z</time>
      </trkpt>
      <trkpt lat="42.57517" lon="2.17457">
        <ele>1582</ele>
        <time>2016-07-06T10:37:49Z</time>
      </trkpt>
      <trkpt lat="42.5746" lon="2.17399">
        <ele>1586</ele>
        <time>2016-07-06T10:38:09Z</time>
      </trkpt>
      <trkpt lat="42.57381" lon="2.17397">
        <ele>1592</ele>
        <time>2016-07-06T10:38:31Z</time>
      </trkpt>
      <trkpt lat="42.5735" lon="2.17254">
        <ele>1596</ele>
        <time>2016-07-06T10:39:02Z</time>
      </trkpt>
      <trkpt lat="42.5732" lon="2.17209">
        <ele>1597</ele>
        <time>2016-07-06T10:39:15Z</time>
      </trkpt>
      <trkpt lat="42.57313" lon="2.17205">
        <ele>1597</ele>
        <time>2016-07-06T10:39:17Z</time>
      </trkpt>
      <trkpt lat="42.5731" lon="2.17201">
        <ele>1597</ele>
        <time>2016-07-06T10:39:18Z</time>
      </trkpt>
      <trkpt lat="42.57163" lon="2.17136">
        <ele>1601</ele>
        <time>2016-07-06T10:39:49Z</time>
      </trkpt>
      <trkpt lat="42.57047" lon="2.16954">
        <ele>1604</ele>
        <time>2016-07-06T10:40:20Z</time>
      </trkpt>
      <trkpt lat="42.56975" lon="2.16758">
        <ele>1609</ele>
        <time>2016-07-06T10:40:51Z</time>
      </trkpt>
      <trkpt lat="42.56843" lon="2.16627">
        <ele>1613</ele>
        <time>2016-07-06T10:41:22Z</time>
      </trkpt>
      <trkpt lat="42.56757" lon="2.16448">
        <ele>1618</ele>
        <time>2016-07-06T10:41:53Z</time>
      </trkpt>
      <trkpt lat="42.56679" lon="2.16316">
        <ele>1625</ele>
        <time>2016-07-06T10:42:23Z</time>
      </trkpt>
      <trkpt lat="42.56659" lon="2.16198">
        <ele>1633</ele>
        <time>2016-07-06T10:42:53Z</time>
      </trkpt>
      <trkpt lat="42.56562" lon="2.16168">
        <ele>1639</ele>
        <time>2016-07-06T10:43:23Z</time>
      </trkpt>
      <trkpt lat="42.56477" lon="2.16049">
        <ele>1645</ele>
        <time>2016-07-06T10:43:54Z</time>
      </trkpt>
      <trkpt lat="42.56469" lon="2.16041">
        <ele>1645</ele>
        <time>2016-07-06T10:43:56Z</time>
      </trkpt>
      <trkpt lat="42.56463" lon="2.16026">
        <ele>1645</ele>
        <time>2016-07-06T10:43:59Z</time>
      </trkpt>
      <trkpt lat="42.56464" lon="2.16019">
        <ele>1645</ele>
        <time>2016-07-06T10:44:00Z</time>
      </trkpt>
      <trkpt lat="42.56453" lon="2.16002">
        <ele>1646</ele>
        <time>2016-07-06T10:44:04Z</time>
      </trkpt>
      <trkpt lat="42.56449" lon="2.16001">
        <ele>1646</ele>
        <time>2016-07-06T10:44:05Z</time>
      </trkpt>
      <trkpt lat="42.56441" lon="2.16003">
        <ele>1646</ele>
        <time>2016-07-06T10:44:07Z</time>
      </trkpt>
      <trkpt lat="42.56436" lon="2.16011">
        <ele>1647</ele>
        <time>2016-07-06T10:44:09Z</time>
      </trkpt>
      <trkpt lat="42.56436" lon="2.16037">
        <ele>1648</ele>
        <time>2016-07-06T10:44:13Z</time>
      </trkpt>
      <trkpt lat="42.56464" lon="2.16205">
        <ele>1657</ele>
        <time>2016-07-06T10:44:43Z</time>
      </trkpt>
      <trkpt lat="42.56486" lon="2.16245">
        <ele>1660</ele>
        <time>2016-07-06T10:44:52Z</time>
      </trkpt>
      <trkpt lat="42.56529" lon="2.16283">
        <ele>1663</ele>
        <time>2016-07-06T10:45:03Z</time>
      </trkpt>
      <trkpt lat="42.56529" lon="2.16287">
        <ele>1663</ele>
        <time>2016-07-06T10:45:04Z</time>
      </trkpt>
      <trkpt lat="42.56574" lon="2.16408">
        <ele>1668</ele>
        <time>2016-07-06T10:45:28Z</time>
      </trkpt>
      <trkpt lat="42.56571" lon="2.16412">
        <ele>1668</ele>
        <time>2016-07-06T10:45:29Z</time>
      </trkpt>
      <trkpt lat="42.56559" lon="2.16423">
        <ele>1669</ele>
        <time>2016-07-06T10:45:32Z</time>
      </trkpt>
      <trkpt lat="42.56464" lon="2.16407">
        <ele>1673</ele>
        <time>2016-07-06T10:45:53Z</time>
      </trkpt>
      <trkpt lat="42.56436" lon="2.16378">
        <ele>1675</ele>
        <time>2016-07-06T10:46:01Z</time>
      </trkpt>
      <trkpt lat="42.56349" lon="2.16222">
        <ele>1681</ele>
        <time>2016-07-06T10:46:32Z</time>
      </trkpt>
      <trkpt lat="42.56336" lon="2.16196">
        <ele>1683</ele>
        <time>2016-07-06T10:46:37Z</time>
      </trkpt>
      <trkpt lat="42.56333" lon="2.16139">
        <ele>1684</ele>
        <time>2016-07-06T10:46:45Z</time>
      </trkpt>
      <trkpt lat="42.56327" lon="2.16132">
        <ele>1685</ele>
        <time>2016-07-06T10:46:47Z</time>
      </trkpt>
      <trkpt lat="42.56318" lon="2.1613">
        <ele>1685</ele>
        <time>2016-07-06T10:46:49Z</time>
      </trkpt>
      <trkpt lat="42.56317" lon="2.16133">
        <ele>1686</ele>
        <time>2016-07-06T10:46:50Z</time>
      </trkpt>
      <trkpt lat="42.56308" lon="2.16152">
        <ele>1686</ele>
        <time>2016-07-06T10:46:53Z</time>
      </trkpt>
      <trkpt lat="42.56282" lon="2.1631">
        <ele>1696</ele>
        <time>2016-07-06T10:47:20Z</time>
      </trkpt>
      <trkpt lat="42.56272" lon="2.16315">
        <ele>1696</ele>
        <time>2016-07-06T10:47:22Z</time>
      </trkpt>
      <trkpt lat="42.56263" lon="2.16307">
        <ele>1697</ele>
        <time>2016-07-06T10:47:23Z</time>
      </trkpt>
      <trkpt lat="42.56244" lon="2.16309">
        <ele>1698</ele>
        <time>2016-07-06T10:47:26Z</time>
      </trkpt>
      <trkpt lat="42.56228" lon="2.16294">
        <ele>1699</ele>
        <time>2016-07-06T10:47:30Z</time>
      </trkpt>
      <trkpt lat="42.5623" lon="2.16282">
        <ele>1699</ele>
        <time>2016-07-06T10:47:31Z</time>
      </trkpt>
      <trkpt lat="42.56218" lon="2.16274">
        <ele>1700</ele>
        <time>2016-07-06T10:47:34Z</time>
      </trkpt>
      <trkpt lat="42.56087" lon="2.16092">
        <ele>1696</ele>
        <time>2016-07-06T10:48:01Z</time>
      </trkpt>
      <trkpt lat="42.55916" lon="2.15917">
        <ele>1690</ele>
        <time>2016-07-06T10:48:29Z</time>
      </trkpt>
      <trkpt lat="42.55895" lon="2.15912">
        <ele>1690</ele>
        <time>2016-07-06T10:48:32Z</time>
      </trkpt>
      <trkpt lat="42.55886" lon="2.15902">
        <ele>1690</ele>
        <time>2016-07-06T10:48:34Z</time>
      </trkpt>
      <trkpt lat="42.55884" lon="2.1589">
        <ele>1690</ele>
        <time>2016-07-06T10:48:35Z</time>
      </trkpt>
      <trkpt lat="42.5588" lon="2.15884">
        <ele>1690</ele>
        <time>2016-07-06T10:48:36Z</time>
      </trkpt>
      <trkpt lat="42.55865" lon="2.15848">
        <ele>1689</ele>
        <time>2016-07-06T10:48:40Z</time>
      </trkpt>
      <trkpt lat="42.5585" lon="2.15845">
        <ele>1689</ele>
        <time>2016-07-06T10:48:42Z</time>
      </trkpt>
      <trkpt lat="42.55761" lon="2.15856">
        <ele>1687</ele>
        <time>2016-07-06T10:48:54Z</time>
      </trkpt>
      <trkpt lat="42.55742" lon="2.15823">
        <ele>1687</ele>
        <time>2016-07-06T10:48:59Z</time>
      </trkpt>
      <trkpt lat="42.55644" lon="2.15698">
        <ele>1683</ele>
        <time>2016-07-06T10:49:19Z</time>
      </trkpt>
      <trkpt lat="42.55463" lon="2.15691">
        <ele>1677</ele>
        <time>2016-07-06T10:49:44Z</time>
      </trkpt>
      <trkpt lat="42.55458" lon="2.1567">
        <ele>1677</ele>
        <time>2016-07-06T10:49:46Z</time>
      </trkpt>
      <trkpt lat="42.55428" lon="2.15498">
        <ele>1673</ele>
        <time>2016-07-06T10:50:05Z</time>
      </trkpt>
      <trkpt lat="42.55344" lon="2.1546">
        <ele>1675</ele>
        <time>2016-07-06T10:50:19Z</time>
      </trkpt>
      <trkpt lat="42.55289" lon="2.1546">
        <ele>1677</ele>
        <time>2016-07-06T10:50:29Z</time>
      </trkpt>
      <trkpt lat="42.55232" lon="2.15416">
        <ele>1681</ele>
        <time>2016-07-06T10:50:42Z</time>
      </trkpt>
      <trkpt lat="42.55226" lon="2.15418">
        <ele>1681</ele>
        <time>2016-07-06T10:50:43Z</time>
      </trkpt>
      <trkpt lat="42.55102" lon="2.15339">
        <ele>1690</ele>
        <time>2016-07-06T10:51:14Z</time>
      </trkpt>
      <trkpt lat="42.54973" lon="2.15246">
        <ele>1696</ele>
        <time>2016-07-06T10:51:45Z</time>
      </trkpt>
      <trkpt lat="42.54937" lon="2.15216">
        <ele>1700</ele>
        <time>2016-07-06T10:51:54Z</time>
      </trkpt>
      <trkpt lat="42.54939" lon="2.15208">
        <ele>1700</ele>
        <time>2016-07-06T10:51:55Z</time>
      </trkpt>
      <trkpt lat="42.54933" lon="2.15209">
        <ele>1700</ele>
        <time>2016-07-06T10:51:56Z</time>
      </trkpt>
      <trkpt lat="42.5493" lon="2.15207">
        <ele>1700</ele>
        <time>2016-07-06T10:51:57Z</time>
      </trkpt>
      <trkpt lat="42.5479" lon="2.15213">
        <ele>1709</ele>
        <time>2016-07-06T10:52:28Z</time>
      </trkpt>
      <trkpt lat="42.54775" lon="2.15196">
        <ele>1711</ele>
        <time>2016-07-06T10:52:33Z</time>
      </trkpt>
      <trkpt lat="42.54717" lon="2.15034">
        <ele>1722</ele>
        <time>2016-07-06T10:53:04Z</time>
      </trkpt>
      <trkpt lat="42.54694" lon="2.15017">
        <ele>1724</ele>
        <time>2016-07-06T10:53:11Z</time>
      </trkpt>
      <trkpt lat="42.5464" lon="2.15005">
        <ele>1730</ele>
        <time>2016-07-06T10:53:26Z</time>
      </trkpt>
      <trkpt lat="42.54578" lon="2.14939">
        <ele>1736</ele>
        <time>2016-07-06T10:53:48Z</time>
      </trkpt>
      <trkpt lat="42.54565" lon="2.14946">
        <ele>1737</ele>
        <time>2016-07-06T10:53:51Z</time>
      </trkpt>
      <trkpt lat="42.54546" lon="2.14981">
        <ele>1739</ele>
        <time>2016-07-06T10:53:58Z</time>
      </trkpt>
      <trkpt lat="42.54549" lon="2.15062">
        <ele>1743</ele>
        <time>2016-07-06T10:54:13Z</time>
      </trkpt>
      <trkpt lat="42.54522" lon="2.15086">
        <ele>1744</ele>
        <time>2016-07-06T10:54:20Z</time>
      </trkpt>
      <trkpt lat="42.54516" lon="2.1508">
        <ele>1745</ele>
        <time>2016-07-06T10:54:23Z</time>
      </trkpt>
      <trkpt lat="42.54509" lon="2.15078">
        <ele>1745</ele>
        <time>2016-07-06T10:54:25Z</time>
      </trkpt>
      <trkpt lat="42.54507" lon="2.15075">
        <ele>1746</ele>
        <time>2016-07-06T10:54:26Z</time>
      </trkpt>
      <trkpt lat="42.54496" lon="2.15067">
        <ele>1746</ele>
        <time>2016-07-06T10:54:29Z</time>
      </trkpt>
      <trkpt lat="42.54495" lon="2.15063">
        <ele>1747</ele>
        <time>2016-07-06T10:54:30Z</time>
      </trkpt>
      <trkpt lat="42.54426" lon="2.15041">
        <ele>1750</ele>
        <time>2016-07-06T10:54:45Z</time>
      </trkpt>
      <trkpt lat="42.5442" lon="2.15027">
        <ele>1751</ele>
        <time>2016-07-06T10:54:48Z</time>
      </trkpt>
      <trkpt lat="42.54415" lon="2.15025">
        <ele>1751</ele>
        <time>2016-07-06T10:54:49Z</time>
      </trkpt>
      <trkpt lat="42.54407" lon="2.14999">
        <ele>1753</ele>
        <time>2016-07-06T10:54:54Z</time>
      </trkpt>
      <trkpt lat="42.54402" lon="2.14999">
        <ele>1753</ele>
        <time>2016-07-06T10:54:55Z</time>
      </trkpt>
      <trkpt lat="42.54396" lon="2.1499">
        <ele>1754</ele>
        <time>2016-07-06T10:54:57Z</time>
      </trkpt>
      <trkpt lat="42.54382" lon="2.14921">
        <ele>1759</ele>
        <time>2016-07-06T10:55:10Z</time>
      </trkpt>
      <trkpt lat="42.54338" lon="2.14901">
        <ele>1762</ele>
        <time>2016-07-06T10:55:20Z</time>
      </trkpt>
      <trkpt lat="42.54335" lon="2.14889">
        <ele>1763</ele>
        <time>2016-07-06T10:55:22Z</time>
      </trkpt>
      <trkpt lat="42.54325" lon="2.1488">
        <ele>1764</ele>
        <time>2016-07-06T10:55:25Z</time>
      </trkpt>
      <trkpt lat="42.54323" lon="2.14875">
        <ele>1764</ele>
        <time>2016-07-06T10:55:27Z</time>
      </trkpt>
      <trkpt lat="42.54222" lon="2.14797">
        <ele>1772</ele>
        <time>2016-07-06T10:55:58Z</time>
      </trkpt>
      <trkpt lat="42.54158" lon="2.14762">
        <ele>1776</ele>
        <time>2016-07-06T10:56:15Z</time>
      </trkpt>
      <trkpt lat="42.54159" lon="2.14755">
        <ele>1776</ele>
        <time>2016-07-06T10:56:16Z</time>
      </trkpt>
      <trkpt lat="42.54161" lon="2.14744">
        <ele>1776</ele>
        <time>2016-07-06T10:56:18Z</time>
      </trkpt>
      <trkpt lat="42.54163" lon="2.1474">
        <ele>1776</ele>
        <time>2016-07-06T10:56:19Z</time>
      </trkpt>
      <trkpt lat="42.54171" lon="2.14736">
        <ele>1777</ele>
        <time>2016-07-06T10:56:21Z</time>
      </trkpt>
      <trkpt lat="42.54175" lon="2.14735">
        <ele>1777</ele>
        <time>2016-07-06T10:56:22Z</time>
      </trkpt>
      <trkpt lat="42.54213" lon="2.14757">
        <ele>1780</ele>
        <time>2016-07-06T10:56:32Z</time>
      </trkpt>
      <trkpt lat="42.54226" lon="2.14754">
        <ele>1781</ele>
        <time>2016-07-06T10:56:34Z</time>
      </trkpt>
      <trkpt lat="42.54227" lon="2.14761">
        <ele>1781</ele>
        <time>2016-07-06T10:56:35Z</time>
      </trkpt>
      <trkpt lat="42.54293" lon="2.14767">
        <ele>1785</ele>
        <time>2016-07-06T10:56:52Z</time>
      </trkpt>
      <trkpt lat="42.54379" lon="2.14731">
        <ele>1792</ele>
        <time>2016-07-06T10:57:16Z</time>
      </trkpt>
      <trkpt lat="42.54389" lon="2.14684">
        <ele>1794</ele>
        <time>2016-07-06T10:57:26Z</time>
      </trkpt>
      <trkpt lat="42.54375" lon="2.14613">
        <ele>1799</ele>
        <time>2016-07-06T10:57:41Z</time>
      </trkpt>
      <trkpt lat="42.54384" lon="2.14584">
        <ele>1800</ele>
        <time>2016-07-06T10:57:47Z</time>
      </trkpt>
      <trkpt lat="42.54382" lon="2.14571">
        <ele>1800</ele>
        <time>2016-07-06T10:57:49Z</time>
      </trkpt>
      <trkpt lat="42.54378" lon="2.14568">
        <ele>1801</ele>
        <time>2016-07-06T10:57:50Z</time>
      </trkpt>
      <trkpt lat="42.54376" lon="2.14563">
        <ele>1801</ele>
        <time>2016-07-06T10:57:51Z</time>
      </trkpt>
      <trkpt lat="42.54372" lon="2.14562">
        <ele>1801</ele>
        <time>2016-07-06T10:57:52Z</time>
      </trkpt>
      <trkpt lat="42.5437" lon="2.1456">
        <ele>1801</ele>
        <time>2016-07-06T10:57:53Z</time>
      </trkpt>
      <trkpt lat="42.54366" lon="2.1456">
        <ele>1801</ele>
        <time>2016-07-06T10:57:54Z</time>
      </trkpt>
      <trkpt lat="42.54359" lon="2.14566">
        <ele>1802</ele>
        <time>2016-07-06T10:57:56Z</time>
      </trkpt>
      <trkpt lat="42.54359" lon="2.14579">
        <ele>1802</ele>
        <time>2016-07-06T10:57:57Z</time>
      </trkpt>
      <trkpt lat="42.54348" lon="2.14692">
        <ele>1804</ele>
        <time>2016-07-06T10:58:16Z</time>
      </trkpt>
      <trkpt lat="42.54336" lon="2.14696">
        <ele>1804</ele>
        <time>2016-07-06T10:58:19Z</time>
      </trkpt>
      <trkpt lat="42.54331" lon="2.14691">
        <ele>1804</ele>
        <time>2016-07-06T10:58:20Z</time>
      </trkpt>
      <trkpt lat="42.54303" lon="2.14685">
        <ele>1806</ele>
        <time>2016-07-06T10:58:26Z</time>
      </trkpt>
      <trkpt lat="42.54297" lon="2.14677">
        <ele>1807</ele>
        <time>2016-07-06T10:58:28Z</time>
      </trkpt>
      <trkpt lat="42.54298" lon="2.14671">
        <ele>1807</ele>
        <time>2016-07-06T10:58:29Z</time>
      </trkpt>
      <trkpt lat="42.54189" lon="2.14595">
        <ele>1815</ele>
        <time>2016-07-06T10:59:00Z</time>
      </trkpt>
      <trkpt lat="42.54087" lon="2.14502">
        <ele>1822</ele>
        <time>2016-07-06T10:59:29Z</time>
      </trkpt>
      <trkpt lat="42.53987" lon="2.14454">
        <ele>1829</ele>
        <time>2016-07-06T10:59:59Z</time>
      </trkpt>
      <trkpt lat="42.53889" lon="2.14366">
        <ele>1837</ele>
        <time>2016-07-06T11:00:29Z</time>
      </trkpt>
      <trkpt lat="42.53777" lon="2.14275">
        <ele>1845</ele>
        <time>2016-07-06T11:01:00Z</time>
      </trkpt>
      <trkpt lat="42.5377" lon="2.14261">
        <ele>1846</ele>
        <time>2016-07-06T11:01:03Z</time>
      </trkpt>
      <trkpt lat="42.53697" lon="2.14217">
        <ele>1852</ele>
        <time>2016-07-06T11:01:23Z</time>
      </trkpt>
      <trkpt lat="42.53584" lon="2.14223">
        <ele>1859</ele>
        <time>2016-07-06T11:01:53Z</time>
      </trkpt>
      <trkpt lat="42.53559" lon="2.14205">
        <ele>1861</ele>
        <time>2016-07-06T11:02:05Z</time>
      </trkpt>
      <trkpt lat="42.5356" lon="2.14202">
        <ele>1861</ele>
        <time>2016-07-06T11:02:12Z</time>
      </trkpt>
      <trkpt lat="42.53556" lon="2.14195">
        <ele>1862</ele>
        <time>2016-07-06T11:02:43Z</time>
      </trkpt>
      <trkpt lat="42.53555" lon="2.14188">
        <ele>1862</ele>
        <time>2016-07-06T11:02:46Z</time>
      </trkpt>
      <trkpt lat="42.53552" lon="2.14184">
        <ele>1862</ele>
        <time>2016-07-06T11:02:55Z</time>
      </trkpt>
      <trkpt lat="42.53545" lon="2.14173">
        <ele>1862</ele>
        <time>2016-07-06T11:03:25Z</time>
      </trkpt>
      <trkpt lat="42.53539" lon="2.14129">
        <ele>1861</ele>
        <time>2016-07-06T11:03:38Z</time>
      </trkpt>
      <trkpt lat="42.53535" lon="2.14125">
        <ele>1861</ele>
        <time>2016-07-06T11:03:40Z</time>
      </trkpt>
      <trkpt lat="42.53515" lon="2.14115">
        <ele>1860</ele>
        <time>2016-07-06T11:03:45Z</time>
      </trkpt>
      <trkpt lat="42.53319" lon="2.14007">
        <ele>1846</ele>
        <time>2016-07-06T11:04:07Z</time>
      </trkpt>
      <trkpt lat="42.53274" lon="2.1402">
        <ele>1842</ele>
        <time>2016-07-06T11:04:11Z</time>
      </trkpt>
      <trkpt lat="42.5309" lon="2.14021">
        <ele>1826</ele>
        <time>2016-07-06T11:04:29Z</time>
      </trkpt>
      <trkpt lat="42.53045" lon="2.14065">
        <ele>1822</ele>
        <time>2016-07-06T11:04:34Z</time>
      </trkpt>
      <trkpt lat="42.52776" lon="2.14175">
        <ele>1805</ele>
        <time>2016-07-06T11:04:59Z</time>
      </trkpt>
      <trkpt lat="42.52736" lon="2.14256">
        <ele>1799</ele>
        <time>2016-07-06T11:05:07Z</time>
      </trkpt>
      <trkpt lat="42.52731" lon="2.14253">
        <ele>1798</ele>
        <time>2016-07-06T11:05:08Z</time>
      </trkpt>
      <trkpt lat="42.52725" lon="2.14247">
        <ele>1798</ele>
        <time>2016-07-06T11:05:09Z</time>
      </trkpt>
      <trkpt lat="42.52723" lon="2.14239">
        <ele>1797</ele>
        <time>2016-07-06T11:05:10Z</time>
      </trkpt>
      <trkpt lat="42.52724" lon="2.14233">
        <ele>1797</ele>
        <time>2016-07-06T11:05:11Z</time>
      </trkpt>
      <trkpt lat="42.52835" lon="2.13865">
        <ele>1772</ele>
        <time>2016-07-06T11:05:41Z</time>
      </trkpt>
      <trkpt lat="42.52987" lon="2.13691">
        <ele>1756</ele>
        <time>2016-07-06T11:05:58Z</time>
      </trkpt>
      <trkpt lat="42.53348" lon="2.13501">
        <ele>1729</ele>
        <time>2016-07-06T11:06:28Z</time>
      </trkpt>
      <trkpt lat="42.53403" lon="2.13246">
        <ele>1714</ele>
        <time>2016-07-06T11:06:42Z</time>
      </trkpt>
      <trkpt lat="42.53364" lon="2.1302">
        <ele>1705</ele>
        <time>2016-07-06T11:06:55Z</time>
      </trkpt>
      <trkpt lat="42.53193" lon="2.12856">
        <ele>1701</ele>
        <time>2016-07-06T11:07:16Z</time>
      </trkpt>
      <trkpt lat="42.53256" lon="2.1264">
        <ele>1704</ele>
        <time>2016-07-06T11:07:47Z</time>
      </trkpt>
      <trkpt lat="42.53239" lon="2.12573">
        <ele>1702</ele>
        <time>2016-07-06T11:07:59Z</time>
      </trkpt>
      <trkpt lat="42.53234" lon="2.12569">
        <ele>1702</ele>
        <time>2016-07-06T11:08:01Z</time>
      </trkpt>
      <trkpt lat="42.53215" lon="2.12573">
        <ele>1702</ele>
        <time>2016-07-06T11:08:06Z</time>
      </trkpt>
      <trkpt lat="42.53068" lon="2.127">
        <ele>1698</ele>
        <time>2016-07-06T11:08:36Z</time>
      </trkpt>
      <trkpt lat="42.52999" lon="2.12727">
        <ele>1696</ele>
        <time>2016-07-06T11:08:46Z</time>
      </trkpt>
      <trkpt lat="42.52964" lon="2.12696">
        <ele>1694</ele>
        <time>2016-07-06T11:08:51Z</time>
      </trkpt>
      <trkpt lat="42.52869" lon="2.12502">
        <ele>1686</ele>
        <time>2016-07-06T11:09:08Z</time>
      </trkpt>
      <trkpt lat="42.5288" lon="2.12442">
        <ele>1685</ele>
        <time>2016-07-06T11:09:12Z</time>
      </trkpt>
      <trkpt lat="42.52908" lon="2.12394">
        <ele>1682</ele>
        <time>2016-07-06T11:09:17Z</time>
      </trkpt>
      <trkpt lat="42.52905" lon="2.12372">
        <ele>1681</ele>
        <time>2016-07-06T11:09:19Z</time>
      </trkpt>
      <trkpt lat="42.52895" lon="2.12357">
        <ele>1679</ele>
        <time>2016-07-06T11:09:21Z</time>
      </trkpt>
      <trkpt lat="42.52757" lon="2.12263">
        <ele>1670</ele>
        <time>2016-07-06T11:09:40Z</time>
      </trkpt>
      <trkpt lat="42.52529" lon="2.12277">
        <ele>1660</ele>
        <time>2016-07-06T11:10:10Z</time>
      </trkpt>
      <trkpt lat="42.52291" lon="2.12122">
        <ele>1649</ele>
        <time>2016-07-06T11:10:40Z</time>
      </trkpt>
      <trkpt lat="42.52055" lon="2.11772">
        <ele>1633</ele>
        <time>2016-07-06T11:11:10Z</time>
      </trkpt>
      <trkpt lat="42.51786" lon="2.11581">
        <ele>1624</ele>
        <time>2016-07-06T11:11:40Z</time>
      </trkpt>
      <trkpt lat="42.51613" lon="2.11459">
        <ele>1623</ele>
        <time>2016-07-06T11:12:11Z</time>
      </trkpt>
      <trkpt lat="42.51582" lon="2.11435">
        <ele>1622</ele>
        <time>2016-07-06T11:12:19Z</time>
      </trkpt>
      <trkpt lat="42.51579" lon="2.11439">
        <ele>1622</ele>
        <time>2016-07-06T11:12:21Z</time>
      </trkpt>
      <trkpt lat="42.51574" lon="2.11451">
        <ele>1622</ele>
        <time>2016-07-06T11:12:25Z</time>
      </trkpt>
      <trkpt lat="42.51574" lon="2.11458">
        <ele>1622</ele>
        <time>2016-07-06T11:12:27Z</time>
      </trkpt>
      <trkpt lat="42.51584" lon="2.11474">
        <ele>1622</ele>
        <time>2016-07-06T11:12:32Z</time>
      </trkpt>
      <trkpt lat="42.51584" lon="2.1148">
        <ele>1622</ele>
        <time>2016-07-06T11:12:35Z</time>
      </trkpt>
      <trkpt lat="42.51581" lon="2.11487">
        <ele>1622</ele>
        <time>2016-07-06T11:12:39Z</time>
      </trkpt>
      <trkpt lat="42.51583" lon="2.1149">
        <ele>1624</ele>
        <time>2016-07-06T11:15:20Z</time>
      </trkpt>
      <trkpt lat="42.51581" lon="2.11488">
        <ele>1623</ele>
        <time>2016-07-06T11:25:10Z</time>
      </trkpt>
      <trkpt lat="42.51578" lon="2.11444">
        <ele>1623</ele>
        <time>2016-07-06T11:25:24Z</time>
      </trkpt>
      <trkpt lat="42.51583" lon="2.11432">
        <ele>1623</ele>
        <time>2016-07-06T11:25:44Z</time>
      </trkpt>
      <trkpt lat="42.51582" lon="2.11424">
        <ele>1623</ele>
        <time>2016-07-06T11:25:46Z</time>
      </trkpt>
      <trkpt lat="42.51491" lon="2.11182">
        <ele>1615</ele>
        <time>2016-07-06T11:26:16Z</time>
      </trkpt>
      <trkpt lat="42.51495" lon="2.11092">
        <ele>1612</ele>
        <time>2016-07-06T11:26:23Z</time>
      </trkpt>
      <trkpt lat="42.5148" lon="2.11069">
        <ele>1610</ele>
        <time>2016-07-06T11:26:26Z</time>
      </trkpt>
      <trkpt lat="42.51386" lon="2.11048">
        <ele>1605</ele>
        <time>2016-07-06T11:26:36Z</time>
      </trkpt>
      <trkpt lat="42.51364" lon="2.11061">
        <ele>1604</ele>
        <time>2016-07-06T11:26:39Z</time>
      </trkpt>
      <trkpt lat="42.51239" lon="2.11279">
        <ele>1602</ele>
        <time>2016-07-06T11:27:09Z</time>
      </trkpt>
      <trkpt lat="42.5118" lon="2.11464">
        <ele>1599</ele>
        <time>2016-07-06T11:27:34Z</time>
      </trkpt>
      <trkpt lat="42.51125" lon="2.11447">
        <ele>1598</ele>
        <time>2016-07-06T11:27:43Z</time>
      </trkpt>
      <trkpt lat="42.51116" lon="2.11439">
        <ele>1598</ele>
        <time>2016-07-06T11:27:45Z</time>
      </trkpt>
      <trkpt lat="42.51114" lon="2.11432">
        <ele>1598</ele>
        <time>2016-07-06T11:27:46Z</time>
      </trkpt>
      <trkpt lat="42.51112" lon="2.11418">
        <ele>1598</ele>
        <time>2016-07-06T11:27:48Z</time>
      </trkpt>
      <trkpt lat="42.51123" lon="2.11394">
        <ele>1598</ele>
        <time>2016-07-06T11:27:54Z</time>
      </trkpt>
      <trkpt lat="42.51163" lon="2.11307">
        <ele>1603</ele>
        <time>2016-07-06T11:28:24Z</time>
      </trkpt>
      <trkpt lat="42.51196" lon="2.11129">
        <ele>1614</ele>
        <time>2016-07-06T11:28:54Z</time>
      </trkpt>
      <trkpt lat="42.5123" lon="2.11028">
        <ele>1622</ele>
        <time>2016-07-06T11:29:12Z</time>
      </trkpt>
      <trkpt lat="42.51331" lon="2.1097">
        <ele>1633</ele>
        <time>2016-07-06T11:29:40Z</time>
      </trkpt>
      <trkpt lat="42.5133" lon="2.10962">
        <ele>1634</ele>
        <time>2016-07-06T11:29:41Z</time>
      </trkpt>
      <trkpt lat="42.51351" lon="2.10915">
        <ele>1636</ele>
        <time>2016-07-06T11:29:50Z</time>
      </trkpt>
      <trkpt lat="42.5137" lon="2.10894">
        <ele>1638</ele>
        <time>2016-07-06T11:29:55Z</time>
      </trkpt>
      <trkpt lat="42.51371" lon="2.10888">
        <ele>1638</ele>
        <time>2016-07-06T11:29:56Z</time>
      </trkpt>
      <trkpt lat="42.51384" lon="2.1088">
        <ele>1638</ele>
        <time>2016-07-06T11:29:58Z</time>
      </trkpt>
      <trkpt lat="42.51384" lon="2.10875">
        <ele>1639</ele>
        <time>2016-07-06T11:29:59Z</time>
      </trkpt>
      <trkpt lat="42.51392" lon="2.10866">
        <ele>1639</ele>
        <time>2016-07-06T11:30:01Z</time>
      </trkpt>
      <trkpt lat="42.51396" lon="2.10853">
        <ele>1639</ele>
        <time>2016-07-06T11:30:03Z</time>
      </trkpt>
      <trkpt lat="42.514" lon="2.10847">
        <ele>1640</ele>
        <time>2016-07-06T11:30:04Z</time>
      </trkpt>
      <trkpt lat="42.514" lon="2.10841">
        <ele>1640</ele>
        <time>2016-07-06T11:30:05Z</time>
      </trkpt>
      <trkpt lat="42.51427" lon="2.10801">
        <ele>1641</ele>
        <time>2016-07-06T11:30:12Z</time>
      </trkpt>
      <trkpt lat="42.51427" lon="2.10794">
        <ele>1641</ele>
        <time>2016-07-06T11:30:13Z</time>
      </trkpt>
      <trkpt lat="42.5143" lon="2.10786">
        <ele>1641</ele>
        <time>2016-07-06T11:30:14Z</time>
      </trkpt>
      <trkpt lat="42.5143" lon="2.10778">
        <ele>1641</ele>
        <time>2016-07-06T11:30:15Z</time>
      </trkpt>
      <trkpt lat="42.51428" lon="2.10716">
        <ele>1643</ele>
        <time>2016-07-06T11:30:23Z</time>
      </trkpt>
      <trkpt lat="42.51337" lon="2.10489">
        <ele>1643</ele>
        <time>2016-07-06T11:30:53Z</time>
      </trkpt>
      <trkpt lat="42.51296" lon="2.1024">
        <ele>1645</ele>
        <time>2016-07-06T11:31:24Z</time>
      </trkpt>
      <trkpt lat="42.5122" lon="2.10049">
        <ele>1652</ele>
        <time>2016-07-06T11:31:54Z</time>
      </trkpt>
      <trkpt lat="42.51176" lon="2.09825">
        <ele>1658</ele>
        <time>2016-07-06T11:32:25Z</time>
      </trkpt>
      <trkpt lat="42.51111" lon="2.09618">
        <ele>1665</ele>
        <time>2016-07-06T11:32:55Z</time>
      </trkpt>
      <trkpt lat="42.51098" lon="2.09374">
        <ele>1668</ele>
        <time>2016-07-06T11:33:26Z</time>
      </trkpt>
      <trkpt lat="42.51119" lon="2.09119">
        <ele>1672</ele>
        <time>2016-07-06T11:33:57Z</time>
      </trkpt>
      <trkpt lat="42.51131" lon="2.08874">
        <ele>1678</ele>
        <time>2016-07-06T11:34:28Z</time>
      </trkpt>
      <trkpt lat="42.51125" lon="2.08636">
        <ele>1686</ele>
        <time>2016-07-06T11:34:59Z</time>
      </trkpt>
      <trkpt lat="42.51126" lon="2.08629">
        <ele>1686</ele>
        <time>2016-07-06T11:35:00Z</time>
      </trkpt>
      <trkpt lat="42.51157" lon="2.08425">
        <ele>1697</ele>
        <time>2016-07-06T11:35:30Z</time>
      </trkpt>
      <trkpt lat="42.51248" lon="2.08218">
        <ele>1703</ele>
        <time>2016-07-06T11:36:01Z</time>
      </trkpt>
      <trkpt lat="42.51262" lon="2.08183">
        <ele>1704</ele>
        <time>2016-07-06T11:36:06Z</time>
      </trkpt>
      <trkpt lat="42.51261" lon="2.08175">
        <ele>1704</ele>
        <time>2016-07-06T11:36:07Z</time>
      </trkpt>
      <trkpt lat="42.51265" lon="2.08169">
        <ele>1705</ele>
        <time>2016-07-06T11:36:08Z</time>
      </trkpt>
      <trkpt lat="42.51338" lon="2.07983">
        <ele>1715</ele>
        <time>2016-07-06T11:36:39Z</time>
      </trkpt>
      <trkpt lat="42.51412" lon="2.07829">
        <ele>1725</ele>
        <time>2016-07-06T11:37:09Z</time>
      </trkpt>
      <trkpt lat="42.51522" lon="2.07632">
        <ele>1727</ele>
        <time>2016-07-06T11:37:40Z</time>
      </trkpt>
      <trkpt lat="42.5152" lon="2.0743">
        <ele>1727</ele>
        <time>2016-07-06T11:38:04Z</time>
      </trkpt>
      <trkpt lat="42.51495" lon="2.07197">
        <ele>1732</ele>
        <time>2016-07-06T11:38:34Z</time>
      </trkpt>
      <trkpt lat="42.51553" lon="2.06955">
        <ele>1736</ele>
        <time>2016-07-06T11:39:05Z</time>
      </trkpt>
      <trkpt lat="42.51567" lon="2.06719">
        <ele>1745</ele>
        <time>2016-07-06T11:39:36Z</time>
      </trkpt>
      <trkpt lat="42.51568" lon="2.06704">
        <ele>1745</ele>
        <time>2016-07-06T11:39:38Z</time>
      </trkpt>
      <trkpt lat="42.51572" lon="2.06698">
        <ele>1746</ele>
        <time>2016-07-06T11:39:39Z</time>
      </trkpt>
      <trkpt lat="42.51518" lon="2.06585">
        <ele>1751</ele>
        <time>2016-07-06T11:39:56Z</time>
      </trkpt>
      <trkpt lat="42.51406" lon="2.06477">
        <ele>1763</ele>
        <time>2016-07-06T11:40:26Z</time>
      </trkpt>
      <trkpt lat="42.51396" lon="2.06459">
        <ele>1764</ele>
        <time>2016-07-06T11:40:30Z</time>
      </trkpt>
      <trkpt lat="42.51395" lon="2.06454">
        <ele>1764</ele>
        <time>2016-07-06T11:40:31Z</time>
      </trkpt>
      <trkpt lat="42.51392" lon="2.06445">
        <ele>1765</ele>
        <time>2016-07-06T11:40:33Z</time>
      </trkpt>
      <trkpt lat="42.51392" lon="2.06435">
        <ele>1766</ele>
        <time>2016-07-06T11:40:35Z</time>
      </trkpt>
      <trkpt lat="42.51399" lon="2.0632">
        <ele>1773</ele>
        <time>2016-07-06T11:40:57Z</time>
      </trkpt>
      <trkpt lat="42.51461" lon="2.06152">
        <ele>1781</ele>
        <time>2016-07-06T11:41:27Z</time>
      </trkpt>
      <trkpt lat="42.5148" lon="2.06011">
        <ele>1785</ele>
        <time>2016-07-06T11:41:59Z</time>
      </trkpt>
      <trkpt lat="42.51481" lon="2.06005">
        <ele>1785</ele>
        <time>2016-07-06T11:42:02Z</time>
      </trkpt>
      <trkpt lat="42.5148" lon="2.05997">
        <ele>1786</ele>
        <time>2016-07-06T11:42:06Z</time>
      </trkpt>
      <trkpt lat="42.51465" lon="2.05984">
        <ele>1786</ele>
        <time>2016-07-06T11:42:11Z</time>
      </trkpt>
      <trkpt lat="42.5149" lon="2.05747">
        <ele>1793</ele>
        <time>2016-07-06T11:42:41Z</time>
      </trkpt>
      <trkpt lat="42.51535" lon="2.05516">
        <ele>1801</ele>
        <time>2016-07-06T11:43:12Z</time>
      </trkpt>
      <trkpt lat="42.51525" lon="2.05279">
        <ele>1808</ele>
        <time>2016-07-06T11:43:43Z</time>
      </trkpt>
      <trkpt lat="42.51528" lon="2.051">
        <ele>1815</ele>
        <time>2016-07-06T11:44:08Z</time>
      </trkpt>
      <trkpt lat="42.51473" lon="2.05051">
        <ele>1819</ele>
        <time>2016-07-06T11:44:20Z</time>
      </trkpt>
      <trkpt lat="42.51316" lon="2.05045">
        <ele>1827</ele>
        <time>2016-07-06T11:44:50Z</time>
      </trkpt>
      <trkpt lat="42.51213" lon="2.05071">
        <ele>1834</ele>
        <time>2016-07-06T11:45:11Z</time>
      </trkpt>
      <trkpt lat="42.5116" lon="2.05004">
        <ele>1836</ele>
        <time>2016-07-06T11:45:26Z</time>
      </trkpt>
      <trkpt lat="42.51151" lon="2.049">
        <ele>1834</ele>
        <time>2016-07-06T11:45:37Z</time>
      </trkpt>
      <trkpt lat="42.5121" lon="2.04631">
        <ele>1822</ele>
        <time>2016-07-06T11:45:59Z</time>
      </trkpt>
      <trkpt lat="42.51188" lon="2.04606">
        <ele>1820</ele>
        <time>2016-07-06T11:46:02Z</time>
      </trkpt>
      <trkpt lat="42.51159" lon="2.04606">
        <ele>1820</ele>
        <time>2016-07-06T11:46:05Z</time>
      </trkpt>
      <trkpt lat="42.50914" lon="2.04649">
        <ele>1805</ele>
        <time>2016-07-06T11:46:31Z</time>
      </trkpt>
      <trkpt lat="42.50783" lon="2.04579">
        <ele>1797</ele>
        <time>2016-07-06T11:46:44Z</time>
      </trkpt>
      <trkpt lat="42.50605" lon="2.04549">
        <ele>1784</ele>
        <time>2016-07-06T11:47:01Z</time>
      </trkpt>
      <trkpt lat="42.50512" lon="2.04456">
        <ele>1775</ele>
        <time>2016-07-06T11:47:12Z</time>
      </trkpt>
      <trkpt lat="42.50514" lon="2.04435">
        <ele>1773</ele>
        <time>2016-07-06T11:47:14Z</time>
      </trkpt>
      <trkpt lat="42.50517" lon="2.0421">
        <ele>1761</ele>
        <time>2016-07-06T11:47:44Z</time>
      </trkpt>
      <trkpt lat="42.50455" lon="2.03966">
        <ele>1754</ele>
        <time>2016-07-06T11:48:14Z</time>
      </trkpt>
      <trkpt lat="42.50429" lon="2.03903">
        <ele>1751</ele>
        <time>2016-07-06T11:48:23Z</time>
      </trkpt>
      <trkpt lat="42.50428" lon="2.03853">
        <ele>1750</ele>
        <time>2016-07-06T11:48:31Z</time>
      </trkpt>
      <trkpt lat="42.50475" lon="2.03675">
        <ele>1751</ele>
        <time>2016-07-06T11:48:57Z</time>
      </trkpt>
      <trkpt lat="42.50478" lon="2.0367">
        <ele>1751</ele>
        <time>2016-07-06T11:48:58Z</time>
      </trkpt>
      <trkpt lat="42.50486" lon="2.0367">
        <ele>1751</ele>
        <time>2016-07-06T11:48:59Z</time>
      </trkpt>
      <trkpt lat="42.50518" lon="2.03639">
        <ele>1751</ele>
        <time>2016-07-06T11:49:09Z</time>
      </trkpt>
      <trkpt lat="42.50515" lon="2.03634">
        <ele>1751</ele>
        <time>2016-07-06T11:49:11Z</time>
      </trkpt>
      <trkpt lat="42.5051" lon="2.0363">
        <ele>1751</ele>
        <time>2016-07-06T11:49:13Z</time>
      </trkpt>
      <trkpt lat="42.50497" lon="2.03618">
        <ele>1749</ele>
        <time>2016-07-06T11:49:19Z</time>
      </trkpt>
      <trkpt lat="42.50493" lon="2.03608">
        <ele>1748</ele>
        <time>2016-07-06T11:49:32Z</time>
      </trkpt>
      <trkpt lat="42.50491" lon="2.03604">
        <ele>1748</ele>
        <time>2016-07-06T11:49:40Z</time>
      </trkpt>
      <trkpt lat="42.50493" lon="2.036">
        <ele>1748</ele>
        <time>2016-07-06T11:49:53Z</time>
      </trkpt>
      <trkpt lat="42.50495" lon="2.03601">
        <ele>1749</ele>
        <time>2016-07-06T11:51:35Z</time>
      </trkpt>
      <trkpt lat="42.50494" lon="2.03609">
        <ele>1749</ele>
        <time>2016-07-06T11:52:35Z</time>
      </trkpt>
    </trkseg>
  </trk>
</gpx>